<?xml version="1.0" encoding="UTF-8" standalone="no" ?>
<gpx xmlns="http://www.topografix.com/GPX/1/1" xmlns:xsi="http://www.w3.org/2001/XMLSchema-instance" xsi:schemaLocation="http://www.topografix.com/GPX/1/1 http://www.topografix.com/GPX/1/1/gpx.xsd" version="1.1" creator="VisuGPX - https://www.visugpx.com">
  <metadata>
    <name>OMS CHENOVE Marche du vendredi 10 février 2012</name>
    <desc><![CDATA[Marche du vendredi 10 février 2012
[b]Attention: fin de parcours hératique !!![/b]]]></desc>
  </metadata>
  <trk>
    <name><![CDATA[OMS CHENOVE Marche du vendredi 10 février 2012_1]]></name>
    <trkseg>
      <trkpt lat="47.29338" lon="5.00357">
        <ele>275.013</ele>
        <time>2011-01-01T12:04:13Z</time>
      </trkpt>
      <trkpt lat="47.2934" lon="5.00345">
        <ele>277.254</ele>
        <time>2012-02-10T09:07:05Z</time>
      </trkpt>
      <trkpt lat="47.29358" lon="5.0035">
        <ele>269.143</ele>
        <time>2012-02-10T09:07:16Z</time>
      </trkpt>
      <trkpt lat="47.29362" lon="5.00357">
        <ele>261.329</ele>
        <time>2012-02-10T09:07:27Z</time>
      </trkpt>
      <trkpt lat="47.2937" lon="5.00355">
        <ele>259.75</ele>
        <time>2012-02-10T09:07:38Z</time>
      </trkpt>
      <trkpt lat="47.29383" lon="5.0036">
        <ele>263.216</ele>
        <time>2012-02-10T09:07:49Z</time>
      </trkpt>
      <trkpt lat="47.29392" lon="5.00357">
        <ele>257.609</ele>
        <time>2012-02-10T09:08:00Z</time>
      </trkpt>
      <trkpt lat="47.29407" lon="5.00357">
        <ele>266.601</ele>
        <time>2012-02-10T09:08:11Z</time>
      </trkpt>
      <trkpt lat="47.29417" lon="5.00357">
        <ele>273.292</ele>
        <time>2012-02-10T09:08:22Z</time>
      </trkpt>
      <trkpt lat="47.29428" lon="5.00343">
        <ele>276.086</ele>
        <time>2012-02-10T09:08:33Z</time>
      </trkpt>
      <trkpt lat="47.29442" lon="5.00342">
        <ele>275.845</ele>
        <time>2012-02-10T09:08:44Z</time>
      </trkpt>
      <trkpt lat="47.29452" lon="5.00347">
        <ele>275.39</ele>
        <time>2012-02-10T09:08:55Z</time>
      </trkpt>
      <trkpt lat="47.29458" lon="5.0035">
        <ele>274.632</ele>
        <time>2012-02-10T09:09:06Z</time>
      </trkpt>
      <trkpt lat="47.29465" lon="5.00355">
        <ele>271.633</ele>
        <time>2012-02-10T09:09:17Z</time>
      </trkpt>
      <trkpt lat="47.29473" lon="5.0034">
        <ele>269.437</ele>
        <time>2012-02-10T09:09:28Z</time>
      </trkpt>
      <trkpt lat="47.29483" lon="5.00327">
        <ele>268.416</ele>
        <time>2012-02-10T09:09:39Z</time>
      </trkpt>
      <trkpt lat="47.29492" lon="5.00308">
        <ele>269.926</ele>
        <time>2012-02-10T09:09:50Z</time>
      </trkpt>
      <trkpt lat="47.29498" lon="5.0029">
        <ele>271.091</ele>
        <time>2012-02-10T09:10:01Z</time>
      </trkpt>
      <trkpt lat="47.29505" lon="5.00275">
        <ele>269.865</ele>
        <time>2012-02-10T09:10:12Z</time>
      </trkpt>
      <trkpt lat="47.2951" lon="5.00263">
        <ele>267.623</ele>
        <time>2012-02-10T09:10:23Z</time>
      </trkpt>
      <trkpt lat="47.2951" lon="5.00252">
        <ele>265.743</ele>
        <time>2012-02-10T09:10:34Z</time>
      </trkpt>
      <trkpt lat="47.29513" lon="5.00228">
        <ele>260.759</ele>
        <time>2012-02-10T09:10:45Z</time>
      </trkpt>
      <trkpt lat="47.29527" lon="5.0021">
        <ele>263.481</ele>
        <time>2012-02-10T09:10:56Z</time>
      </trkpt>
      <trkpt lat="47.29537" lon="5.002">
        <ele>265.638</ele>
        <time>2012-02-10T09:11:07Z</time>
      </trkpt>
      <trkpt lat="47.29548" lon="5.00192">
        <ele>267.786</ele>
        <time>2012-02-10T09:11:18Z</time>
      </trkpt>
      <trkpt lat="47.2956" lon="5.00177">
        <ele>271.48</ele>
        <time>2012-02-10T09:11:29Z</time>
      </trkpt>
      <trkpt lat="47.29568" lon="5.00165">
        <ele>272.11</ele>
        <time>2012-02-10T09:11:40Z</time>
      </trkpt>
      <trkpt lat="47.29577" lon="5.00148">
        <ele>274.378</ele>
        <time>2012-02-10T09:11:51Z</time>
      </trkpt>
      <trkpt lat="47.29585" lon="5.0013">
        <ele>274.362</ele>
        <time>2012-02-10T09:12:02Z</time>
      </trkpt>
      <trkpt lat="47.29592" lon="5.0011">
        <ele>274.754</ele>
        <time>2012-02-10T09:12:13Z</time>
      </trkpt>
      <trkpt lat="47.29598" lon="5.00092">
        <ele>275.957</ele>
        <time>2012-02-10T09:12:24Z</time>
      </trkpt>
      <trkpt lat="47.29603" lon="5.00073">
        <ele>278.354</ele>
        <time>2012-02-10T09:12:35Z</time>
      </trkpt>
      <trkpt lat="47.29608" lon="5.00055">
        <ele>279.035</ele>
        <time>2012-02-10T09:12:46Z</time>
      </trkpt>
      <trkpt lat="47.29618" lon="5.00038">
        <ele>280.994</ele>
        <time>2012-02-10T09:12:57Z</time>
      </trkpt>
      <trkpt lat="47.2962" lon="5.00018">
        <ele>278.544</ele>
        <time>2012-02-10T09:13:08Z</time>
      </trkpt>
      <trkpt lat="47.29623" lon="5.00002">
        <ele>278.195</ele>
        <time>2012-02-10T09:13:19Z</time>
      </trkpt>
      <trkpt lat="47.29627" lon="4.99983">
        <ele>278.455</ele>
        <time>2012-02-10T09:13:30Z</time>
      </trkpt>
      <trkpt lat="47.29627" lon="4.99963">
        <ele>283.027</ele>
        <time>2012-02-10T09:13:41Z</time>
      </trkpt>
      <trkpt lat="47.29622" lon="4.99955">
        <ele>284.802</ele>
        <time>2012-02-10T09:13:52Z</time>
      </trkpt>
      <trkpt lat="47.29615" lon="4.99945">
        <ele>283.175</ele>
        <time>2012-02-10T09:14:03Z</time>
      </trkpt>
      <trkpt lat="47.2961" lon="4.99932">
        <ele>282.502</ele>
        <time>2012-02-10T09:14:14Z</time>
      </trkpt>
      <trkpt lat="47.296" lon="4.99922">
        <ele>281.031</ele>
        <time>2012-02-10T09:14:25Z</time>
      </trkpt>
      <trkpt lat="47.29588" lon="4.99908">
        <ele>282.208</ele>
        <time>2012-02-10T09:14:36Z</time>
      </trkpt>
      <trkpt lat="47.29588" lon="4.99908">
        <ele>282.208</ele>
        <time>2012-02-10T09:14:47Z</time>
      </trkpt>
      <trkpt lat="47.29577" lon="4.99897">
        <ele>283.508</ele>
        <time>2012-02-10T09:14:58Z</time>
      </trkpt>
      <trkpt lat="47.29567" lon="4.99892">
        <ele>285.013</ele>
        <time>2012-02-10T09:15:09Z</time>
      </trkpt>
      <trkpt lat="47.29557" lon="4.99883">
        <ele>284.036</ele>
        <time>2012-02-10T09:15:20Z</time>
      </trkpt>
      <trkpt lat="47.29548" lon="4.9988">
        <ele>287.215</ele>
        <time>2012-02-10T09:15:31Z</time>
      </trkpt>
      <trkpt lat="47.29537" lon="4.99868">
        <ele>288.303</ele>
        <time>2012-02-10T09:15:42Z</time>
      </trkpt>
      <trkpt lat="47.2953" lon="4.99865">
        <ele>287.375</ele>
        <time>2012-02-10T09:15:53Z</time>
      </trkpt>
      <trkpt lat="47.29523" lon="4.99858">
        <ele>286.543</ele>
        <time>2012-02-10T09:16:04Z</time>
      </trkpt>
      <trkpt lat="47.29515" lon="4.99842">
        <ele>287.456</ele>
        <time>2012-02-10T09:16:15Z</time>
      </trkpt>
      <trkpt lat="47.29518" lon="4.99827">
        <ele>290.866</ele>
        <time>2012-02-10T09:16:26Z</time>
      </trkpt>
      <trkpt lat="47.29522" lon="4.9981">
        <ele>300.483</ele>
        <time>2012-02-10T09:16:37Z</time>
      </trkpt>
      <trkpt lat="47.29512" lon="4.998">
        <ele>303.058</ele>
        <time>2012-02-10T09:16:48Z</time>
      </trkpt>
      <trkpt lat="47.29505" lon="4.99787">
        <ele>306.773</ele>
        <time>2012-02-10T09:16:59Z</time>
      </trkpt>
      <trkpt lat="47.29503" lon="4.9978">
        <ele>303.272</ele>
        <time>2012-02-10T09:17:10Z</time>
      </trkpt>
      <trkpt lat="47.29505" lon="4.99777">
        <ele>304.672</ele>
        <time>2012-02-10T09:17:21Z</time>
      </trkpt>
      <trkpt lat="47.29507" lon="4.99773">
        <ele>304.839</ele>
        <time>2012-02-10T09:17:32Z</time>
      </trkpt>
      <trkpt lat="47.295" lon="4.9976">
        <ele>302.335</ele>
        <time>2012-02-10T09:17:43Z</time>
      </trkpt>
      <trkpt lat="47.295" lon="4.99757">
        <ele>302.94</ele>
        <time>2012-02-10T09:17:54Z</time>
      </trkpt>
      <trkpt lat="47.295" lon="4.99755">
        <ele>304.041</ele>
        <time>2012-02-10T09:18:05Z</time>
      </trkpt>
      <trkpt lat="47.29502" lon="4.99753">
        <ele>304.729</ele>
        <time>2012-02-10T09:18:16Z</time>
      </trkpt>
      <trkpt lat="47.295" lon="4.99752">
        <ele>302.904</ele>
        <time>2012-02-10T09:18:27Z</time>
      </trkpt>
      <trkpt lat="47.29495" lon="4.9974">
        <ele>304.273</ele>
        <time>2012-02-10T09:18:38Z</time>
      </trkpt>
      <trkpt lat="47.29492" lon="4.99728">
        <ele>307.089</ele>
        <time>2012-02-10T09:18:49Z</time>
      </trkpt>
      <trkpt lat="47.29482" lon="4.99717">
        <ele>306.795</ele>
        <time>2012-02-10T09:19:00Z</time>
      </trkpt>
      <trkpt lat="47.29468" lon="4.99697">
        <ele>302.142</ele>
        <time>2012-02-10T09:19:11Z</time>
      </trkpt>
      <trkpt lat="47.29462" lon="4.99683">
        <ele>302.666</ele>
        <time>2012-02-10T09:19:22Z</time>
      </trkpt>
      <trkpt lat="47.29458" lon="4.9968">
        <ele>300.914</ele>
        <time>2012-02-10T09:19:33Z</time>
      </trkpt>
      <trkpt lat="47.2945" lon="4.99665">
        <ele>305.063</ele>
        <time>2012-02-10T09:19:44Z</time>
      </trkpt>
      <trkpt lat="47.29447" lon="4.99645">
        <ele>307.909</ele>
        <time>2012-02-10T09:19:55Z</time>
      </trkpt>
      <trkpt lat="47.29443" lon="4.99623">
        <ele>312.611</ele>
        <time>2012-02-10T09:20:06Z</time>
      </trkpt>
      <trkpt lat="47.2943" lon="4.99595">
        <ele>313.519</ele>
        <time>2012-02-10T09:20:17Z</time>
      </trkpt>
      <trkpt lat="47.2942" lon="4.99575">
        <ele>317.416</ele>
        <time>2012-02-10T09:20:28Z</time>
      </trkpt>
      <trkpt lat="47.2941" lon="4.99547">
        <ele>314.677</ele>
        <time>2012-02-10T09:20:39Z</time>
      </trkpt>
      <trkpt lat="47.29408" lon="4.99527">
        <ele>318.035</ele>
        <time>2012-02-10T09:20:50Z</time>
      </trkpt>
      <trkpt lat="47.29412" lon="4.9951">
        <ele>323.55</ele>
        <time>2012-02-10T09:21:01Z</time>
      </trkpt>
      <trkpt lat="47.29407" lon="4.99488">
        <ele>322.969</ele>
        <time>2012-02-10T09:21:12Z</time>
      </trkpt>
      <trkpt lat="47.29407" lon="4.99472">
        <ele>325.743</ele>
        <time>2012-02-10T09:21:23Z</time>
      </trkpt>
      <trkpt lat="47.294" lon="4.99462">
        <ele>331.758</ele>
        <time>2012-02-10T09:21:34Z</time>
      </trkpt>
      <trkpt lat="47.29393" lon="4.99452">
        <ele>333.024</ele>
        <time>2012-02-10T09:21:45Z</time>
      </trkpt>
      <trkpt lat="47.29377" lon="4.99433">
        <ele>328.227</ele>
        <time>2012-02-10T09:21:56Z</time>
      </trkpt>
      <trkpt lat="47.29365" lon="4.9941">
        <ele>330.058</ele>
        <time>2012-02-10T09:22:07Z</time>
      </trkpt>
      <trkpt lat="47.29355" lon="4.9938">
        <ele>335.936</ele>
        <time>2012-02-10T09:22:18Z</time>
      </trkpt>
      <trkpt lat="47.29347" lon="4.99358">
        <ele>335.193</ele>
        <time>2012-02-10T09:22:29Z</time>
      </trkpt>
      <trkpt lat="47.2934" lon="4.99338">
        <ele>336.169</ele>
        <time>2012-02-10T09:22:40Z</time>
      </trkpt>
      <trkpt lat="47.2933" lon="4.9932">
        <ele>332.159</ele>
        <time>2012-02-10T09:22:51Z</time>
      </trkpt>
      <trkpt lat="47.29323" lon="4.99292">
        <ele>336.447</ele>
        <time>2012-02-10T09:23:02Z</time>
      </trkpt>
      <trkpt lat="47.29322" lon="4.99272">
        <ele>336.555</ele>
        <time>2012-02-10T09:23:13Z</time>
      </trkpt>
      <trkpt lat="47.29315" lon="4.99248">
        <ele>337.691</ele>
        <time>2012-02-10T09:23:24Z</time>
      </trkpt>
      <trkpt lat="47.29303" lon="4.99218">
        <ele>334.155</ele>
        <time>2012-02-10T09:23:35Z</time>
      </trkpt>
      <trkpt lat="47.29302" lon="4.99198">
        <ele>334.548</ele>
        <time>2012-02-10T09:23:46Z</time>
      </trkpt>
      <trkpt lat="47.29283" lon="4.99152">
        <ele>338.377</ele>
        <time>2012-02-10T09:23:57Z</time>
      </trkpt>
      <trkpt lat="47.29287" lon="4.99132">
        <ele>337.652</ele>
        <time>2012-02-10T09:24:08Z</time>
      </trkpt>
      <trkpt lat="47.2929" lon="4.9912">
        <ele>336.97</ele>
        <time>2012-02-10T09:24:19Z</time>
      </trkpt>
      <trkpt lat="47.29287" lon="4.99105">
        <ele>337.09</ele>
        <time>2012-02-10T09:24:30Z</time>
      </trkpt>
      <trkpt lat="47.29283" lon="4.99085">
        <ele>335.877</ele>
        <time>2012-02-10T09:24:41Z</time>
      </trkpt>
      <trkpt lat="47.29277" lon="4.99065">
        <ele>337.663</ele>
        <time>2012-02-10T09:24:52Z</time>
      </trkpt>
      <trkpt lat="47.29277" lon="4.99045">
        <ele>340.317</ele>
        <time>2012-02-10T09:25:03Z</time>
      </trkpt>
      <trkpt lat="47.29278" lon="4.99027">
        <ele>343.416</ele>
        <time>2012-02-10T09:25:14Z</time>
      </trkpt>
      <trkpt lat="47.29278" lon="4.99002">
        <ele>351.351</ele>
        <time>2012-02-10T09:25:25Z</time>
      </trkpt>
      <trkpt lat="47.29278" lon="4.9898">
        <ele>352.575</ele>
        <time>2012-02-10T09:25:36Z</time>
      </trkpt>
      <trkpt lat="47.29283" lon="4.98963">
        <ele>351.366</ele>
        <time>2012-02-10T09:25:47Z</time>
      </trkpt>
      <trkpt lat="47.29283" lon="4.98942">
        <ele>352.444</ele>
        <time>2012-02-10T09:25:58Z</time>
      </trkpt>
      <trkpt lat="47.29285" lon="4.98915">
        <ele>354.631</ele>
        <time>2012-02-10T09:26:09Z</time>
      </trkpt>
      <trkpt lat="47.29285" lon="4.98893">
        <ele>354.253</ele>
        <time>2012-02-10T09:26:20Z</time>
      </trkpt>
      <trkpt lat="47.29282" lon="4.98877">
        <ele>358.104</ele>
        <time>2012-02-10T09:26:31Z</time>
      </trkpt>
      <trkpt lat="47.29275" lon="4.98862">
        <ele>358.293</ele>
        <time>2012-02-10T09:26:42Z</time>
      </trkpt>
      <trkpt lat="47.29267" lon="4.98847">
        <ele>358.772</ele>
        <time>2012-02-10T09:26:53Z</time>
      </trkpt>
      <trkpt lat="47.29253" lon="4.98825">
        <ele>360.731</ele>
        <time>2012-02-10T09:27:04Z</time>
      </trkpt>
      <trkpt lat="47.29248" lon="4.98808">
        <ele>361.075</ele>
        <time>2012-02-10T09:27:15Z</time>
      </trkpt>
      <trkpt lat="47.29237" lon="4.98785">
        <ele>361.619</ele>
        <time>2012-02-10T09:27:26Z</time>
      </trkpt>
      <trkpt lat="47.29223" lon="4.98768">
        <ele>361.412</ele>
        <time>2012-02-10T09:27:37Z</time>
      </trkpt>
      <trkpt lat="47.29217" lon="4.98757">
        <ele>364.422</ele>
        <time>2012-02-10T09:27:48Z</time>
      </trkpt>
      <trkpt lat="47.29217" lon="4.98732">
        <ele>366.426</ele>
        <time>2012-02-10T09:27:59Z</time>
      </trkpt>
      <trkpt lat="47.29222" lon="4.98708">
        <ele>368.122</ele>
        <time>2012-02-10T09:28:10Z</time>
      </trkpt>
      <trkpt lat="47.2923" lon="4.9869">
        <ele>368.626</ele>
        <time>2012-02-10T09:28:21Z</time>
      </trkpt>
      <trkpt lat="47.29242" lon="4.9867">
        <ele>369.433</ele>
        <time>2012-02-10T09:28:32Z</time>
      </trkpt>
      <trkpt lat="47.29252" lon="4.98655">
        <ele>370.099</ele>
        <time>2012-02-10T09:28:43Z</time>
      </trkpt>
      <trkpt lat="47.29258" lon="4.98637">
        <ele>370.62</ele>
        <time>2012-02-10T09:28:54Z</time>
      </trkpt>
      <trkpt lat="47.29265" lon="4.98618">
        <ele>370.805</ele>
        <time>2012-02-10T09:29:05Z</time>
      </trkpt>
      <trkpt lat="47.29275" lon="4.98602">
        <ele>370.252</ele>
        <time>2012-02-10T09:29:16Z</time>
      </trkpt>
      <trkpt lat="47.2928" lon="4.98587">
        <ele>371.146</ele>
        <time>2012-02-10T09:29:27Z</time>
      </trkpt>
      <trkpt lat="47.29288" lon="4.9857">
        <ele>371.451</ele>
        <time>2012-02-10T09:29:38Z</time>
      </trkpt>
      <trkpt lat="47.293" lon="4.9855">
        <ele>376.446</ele>
        <time>2012-02-10T09:29:49Z</time>
      </trkpt>
      <trkpt lat="47.29312" lon="4.9853">
        <ele>376.577</ele>
        <time>2012-02-10T09:30:00Z</time>
      </trkpt>
      <trkpt lat="47.29322" lon="4.98507">
        <ele>376.411</ele>
        <time>2012-02-10T09:30:11Z</time>
      </trkpt>
      <trkpt lat="47.2933" lon="4.98488">
        <ele>375.499</ele>
        <time>2012-02-10T09:30:22Z</time>
      </trkpt>
      <trkpt lat="47.29343" lon="4.9847">
        <ele>373.912</ele>
        <time>2012-02-10T09:30:33Z</time>
      </trkpt>
      <trkpt lat="47.2936" lon="4.9845">
        <ele>374.4</ele>
        <time>2012-02-10T09:30:44Z</time>
      </trkpt>
      <trkpt lat="47.29372" lon="4.9843">
        <ele>379.551</ele>
        <time>2012-02-10T09:30:55Z</time>
      </trkpt>
      <trkpt lat="47.29385" lon="4.98413">
        <ele>385.798</ele>
        <time>2012-02-10T09:31:06Z</time>
      </trkpt>
      <trkpt lat="47.29398" lon="4.98393">
        <ele>383.366</ele>
        <time>2012-02-10T09:31:17Z</time>
      </trkpt>
      <trkpt lat="47.29403" lon="4.98367">
        <ele>383.947</ele>
        <time>2012-02-10T09:31:28Z</time>
      </trkpt>
      <trkpt lat="47.29402" lon="4.98352">
        <ele>384.046</ele>
        <time>2012-02-10T09:31:39Z</time>
      </trkpt>
      <trkpt lat="47.294" lon="4.9835">
        <ele>384.538</ele>
        <time>2012-02-10T09:31:50Z</time>
      </trkpt>
      <trkpt lat="47.294" lon="4.9835">
        <ele>384.538</ele>
        <time>2012-02-10T09:32:01Z</time>
      </trkpt>
      <trkpt lat="47.294" lon="4.9835">
        <ele>384.324</ele>
        <time>2012-02-10T09:32:12Z</time>
      </trkpt>
      <trkpt lat="47.294" lon="4.9835">
        <ele>384.324</ele>
        <time>2012-02-10T09:32:23Z</time>
      </trkpt>
      <trkpt lat="47.294" lon="4.9835">
        <ele>383.778</ele>
        <time>2012-02-10T09:32:34Z</time>
      </trkpt>
      <trkpt lat="47.294" lon="4.9835">
        <ele>383.778</ele>
        <time>2012-02-10T09:32:45Z</time>
      </trkpt>
      <trkpt lat="47.294" lon="4.9835">
        <ele>383.778</ele>
        <time>2012-02-10T09:32:56Z</time>
      </trkpt>
      <trkpt lat="47.294" lon="4.9835">
        <ele>383.358</ele>
        <time>2012-02-10T09:33:07Z</time>
      </trkpt>
      <trkpt lat="47.294" lon="4.9835">
        <ele>383.358</ele>
        <time>2012-02-10T09:33:18Z</time>
      </trkpt>
      <trkpt lat="47.29398" lon="4.98342">
        <ele>384.891</ele>
        <time>2012-02-10T09:33:29Z</time>
      </trkpt>
      <trkpt lat="47.29395" lon="4.98323">
        <ele>383.83</ele>
        <time>2012-02-10T09:33:40Z</time>
      </trkpt>
      <trkpt lat="47.29398" lon="4.98305">
        <ele>382.459</ele>
        <time>2012-02-10T09:33:51Z</time>
      </trkpt>
      <trkpt lat="47.29405" lon="4.98292">
        <ele>382.136</ele>
        <time>2012-02-10T09:34:02Z</time>
      </trkpt>
      <trkpt lat="47.2941" lon="4.98277">
        <ele>381.898</ele>
        <time>2012-02-10T09:34:13Z</time>
      </trkpt>
      <trkpt lat="47.29412" lon="4.98258">
        <ele>382.576</ele>
        <time>2012-02-10T09:34:24Z</time>
      </trkpt>
      <trkpt lat="47.294" lon="4.9824">
        <ele>382.013</ele>
        <time>2012-02-10T09:34:35Z</time>
      </trkpt>
      <trkpt lat="47.29392" lon="4.98225">
        <ele>382.091</ele>
        <time>2012-02-10T09:34:46Z</time>
      </trkpt>
      <trkpt lat="47.29378" lon="4.98205">
        <ele>382.129</ele>
        <time>2012-02-10T09:34:57Z</time>
      </trkpt>
      <trkpt lat="47.29368" lon="4.98178">
        <ele>379.956</ele>
        <time>2012-02-10T09:35:08Z</time>
      </trkpt>
      <trkpt lat="47.29362" lon="4.98162">
        <ele>378.465</ele>
        <time>2012-02-10T09:35:19Z</time>
      </trkpt>
      <trkpt lat="47.29353" lon="4.98153">
        <ele>376.247</ele>
        <time>2012-02-10T09:35:30Z</time>
      </trkpt>
      <trkpt lat="47.29338" lon="4.98138">
        <ele>375.55</ele>
        <time>2012-02-10T09:35:41Z</time>
      </trkpt>
      <trkpt lat="47.29325" lon="4.98117">
        <ele>376.583</ele>
        <time>2012-02-10T09:35:52Z</time>
      </trkpt>
      <trkpt lat="47.29312" lon="4.98098">
        <ele>371.369</ele>
        <time>2012-02-10T09:36:03Z</time>
      </trkpt>
      <trkpt lat="47.29302" lon="4.98085">
        <ele>370.467</ele>
        <time>2012-02-10T09:36:14Z</time>
      </trkpt>
      <trkpt lat="47.2929" lon="4.98077">
        <ele>367.315</ele>
        <time>2012-02-10T09:36:25Z</time>
      </trkpt>
      <trkpt lat="47.29278" lon="4.9807">
        <ele>366.111</ele>
        <time>2012-02-10T09:36:36Z</time>
      </trkpt>
      <trkpt lat="47.29263" lon="4.9806">
        <ele>367.725</ele>
        <time>2012-02-10T09:36:47Z</time>
      </trkpt>
      <trkpt lat="47.29248" lon="4.9804">
        <ele>368.773</ele>
        <time>2012-02-10T09:36:58Z</time>
      </trkpt>
      <trkpt lat="47.29243" lon="4.98033">
        <ele>366.209</ele>
        <time>2012-02-10T09:37:09Z</time>
      </trkpt>
      <trkpt lat="47.29237" lon="4.98017">
        <ele>375.277</ele>
        <time>2012-02-10T09:37:20Z</time>
      </trkpt>
      <trkpt lat="47.29223" lon="4.97995">
        <ele>374.966</ele>
        <time>2012-02-10T09:37:31Z</time>
      </trkpt>
      <trkpt lat="47.29213" lon="4.97977">
        <ele>373.345</ele>
        <time>2012-02-10T09:37:42Z</time>
      </trkpt>
      <trkpt lat="47.29193" lon="4.9795">
        <ele>368.306</ele>
        <time>2012-02-10T09:37:53Z</time>
      </trkpt>
      <trkpt lat="47.29185" lon="4.97935">
        <ele>365.108</ele>
        <time>2012-02-10T09:38:04Z</time>
      </trkpt>
      <trkpt lat="47.29177" lon="4.9792">
        <ele>364.981</ele>
        <time>2012-02-10T09:38:15Z</time>
      </trkpt>
      <trkpt lat="47.29165" lon="4.97898">
        <ele>368.33</ele>
        <time>2012-02-10T09:38:26Z</time>
      </trkpt>
      <trkpt lat="47.29158" lon="4.97878">
        <ele>369.72</ele>
        <time>2012-02-10T09:38:37Z</time>
      </trkpt>
      <trkpt lat="47.29163" lon="4.97853">
        <ele>376.24</ele>
        <time>2012-02-10T09:38:48Z</time>
      </trkpt>
      <trkpt lat="47.29172" lon="4.9784">
        <ele>379.136</ele>
        <time>2012-02-10T09:38:59Z</time>
      </trkpt>
      <trkpt lat="47.29187" lon="4.97837">
        <ele>378.786</ele>
        <time>2012-02-10T09:39:10Z</time>
      </trkpt>
      <trkpt lat="47.29198" lon="4.97838">
        <ele>382.006</ele>
        <time>2012-02-10T09:39:21Z</time>
      </trkpt>
      <trkpt lat="47.29218" lon="4.97838">
        <ele>384.033</ele>
        <time>2012-02-10T09:39:32Z</time>
      </trkpt>
      <trkpt lat="47.29233" lon="4.97838">
        <ele>384.632</ele>
        <time>2012-02-10T09:39:43Z</time>
      </trkpt>
      <trkpt lat="47.29248" lon="4.97837">
        <ele>384.768</ele>
        <time>2012-02-10T09:39:54Z</time>
      </trkpt>
      <trkpt lat="47.29265" lon="4.97837">
        <ele>384.594</ele>
        <time>2012-02-10T09:40:05Z</time>
      </trkpt>
      <trkpt lat="47.29275" lon="4.97843">
        <ele>382.414</ele>
        <time>2012-02-10T09:40:16Z</time>
      </trkpt>
      <trkpt lat="47.29282" lon="4.97855">
        <ele>381.932</ele>
        <time>2012-02-10T09:40:27Z</time>
      </trkpt>
      <trkpt lat="47.29295" lon="4.97857">
        <ele>386.46</ele>
        <time>2012-02-10T09:40:38Z</time>
      </trkpt>
      <trkpt lat="47.29308" lon="4.97858">
        <ele>387.712</ele>
        <time>2012-02-10T09:40:49Z</time>
      </trkpt>
      <trkpt lat="47.29325" lon="4.97858">
        <ele>386.522</ele>
        <time>2012-02-10T09:41:00Z</time>
      </trkpt>
      <trkpt lat="47.29342" lon="4.97853">
        <ele>385.164</ele>
        <time>2012-02-10T09:41:11Z</time>
      </trkpt>
      <trkpt lat="47.29345" lon="4.97835">
        <ele>382.246</ele>
        <time>2012-02-10T09:41:22Z</time>
      </trkpt>
      <trkpt lat="47.2935" lon="4.97812">
        <ele>379.776</ele>
        <time>2012-02-10T09:41:33Z</time>
      </trkpt>
      <trkpt lat="47.2935" lon="4.97802">
        <ele>380.619</ele>
        <time>2012-02-10T09:41:44Z</time>
      </trkpt>
      <trkpt lat="47.29347" lon="4.97795">
        <ele>383.141</ele>
        <time>2012-02-10T09:41:55Z</time>
      </trkpt>
      <trkpt lat="47.29347" lon="4.97795">
        <ele>383.141</ele>
        <time>2012-02-10T09:42:06Z</time>
      </trkpt>
      <trkpt lat="47.29345" lon="4.97795">
        <ele>384.788</ele>
        <time>2012-02-10T09:42:17Z</time>
      </trkpt>
      <trkpt lat="47.29345" lon="4.97795">
        <ele>384.788</ele>
        <time>2012-02-10T09:42:28Z</time>
      </trkpt>
      <trkpt lat="47.29345" lon="4.97795">
        <ele>384.788</ele>
        <time>2012-02-10T09:42:39Z</time>
      </trkpt>
      <trkpt lat="47.29345" lon="4.97795">
        <ele>384.788</ele>
        <time>2012-02-10T09:42:50Z</time>
      </trkpt>
      <trkpt lat="47.29345" lon="4.97797">
        <ele>385.164</ele>
        <time>2012-02-10T09:43:01Z</time>
      </trkpt>
      <trkpt lat="47.29345" lon="4.97798">
        <ele>385.165</ele>
        <time>2012-02-10T09:43:12Z</time>
      </trkpt>
      <trkpt lat="47.29343" lon="4.9781">
        <ele>384.116</ele>
        <time>2012-02-10T09:43:23Z</time>
      </trkpt>
      <trkpt lat="47.29335" lon="4.97808">
        <ele>387.274</ele>
        <time>2012-02-10T09:43:34Z</time>
      </trkpt>
      <trkpt lat="47.2933" lon="4.97805">
        <ele>388.1</ele>
        <time>2012-02-10T09:43:45Z</time>
      </trkpt>
      <trkpt lat="47.29318" lon="4.978">
        <ele>382.55</ele>
        <time>2012-02-10T09:43:56Z</time>
      </trkpt>
      <trkpt lat="47.29307" lon="4.978">
        <ele>381.876</ele>
        <time>2012-02-10T09:44:07Z</time>
      </trkpt>
      <trkpt lat="47.29295" lon="4.97793">
        <ele>379.902</ele>
        <time>2012-02-10T09:44:18Z</time>
      </trkpt>
      <trkpt lat="47.29273" lon="4.97778">
        <ele>368.584</ele>
        <time>2012-02-10T09:44:29Z</time>
      </trkpt>
      <trkpt lat="47.29263" lon="4.97772">
        <ele>365.453</ele>
        <time>2012-02-10T09:44:40Z</time>
      </trkpt>
      <trkpt lat="47.2925" lon="4.97767">
        <ele>362.335</ele>
        <time>2012-02-10T09:44:51Z</time>
      </trkpt>
      <trkpt lat="47.29227" lon="4.97748">
        <ele>357.09</ele>
        <time>2012-02-10T09:45:02Z</time>
      </trkpt>
      <trkpt lat="47.2921" lon="4.97735">
        <ele>356.651</ele>
        <time>2012-02-10T09:45:13Z</time>
      </trkpt>
      <trkpt lat="47.29193" lon="4.97715">
        <ele>353.437</ele>
        <time>2012-02-10T09:45:24Z</time>
      </trkpt>
      <trkpt lat="47.29183" lon="4.97707">
        <ele>350.502</ele>
        <time>2012-02-10T09:45:35Z</time>
      </trkpt>
      <trkpt lat="47.2918" lon="4.97697">
        <ele>350.19</ele>
        <time>2012-02-10T09:45:46Z</time>
      </trkpt>
      <trkpt lat="47.29168" lon="4.97677">
        <ele>347.871</ele>
        <time>2012-02-10T09:45:57Z</time>
      </trkpt>
      <trkpt lat="47.29145" lon="4.97633">
        <ele>343.06</ele>
        <time>2012-02-10T09:46:08Z</time>
      </trkpt>
      <trkpt lat="47.29142" lon="4.97627">
        <ele>342.493</ele>
        <time>2012-02-10T09:46:19Z</time>
      </trkpt>
      <trkpt lat="47.29138" lon="4.97618">
        <ele>340.629</ele>
        <time>2012-02-10T09:46:30Z</time>
      </trkpt>
      <trkpt lat="47.29128" lon="4.97608">
        <ele>338.946</ele>
        <time>2012-02-10T09:46:41Z</time>
      </trkpt>
      <trkpt lat="47.2912" lon="4.97607">
        <ele>336.464</ele>
        <time>2012-02-10T09:46:52Z</time>
      </trkpt>
      <trkpt lat="47.29117" lon="4.97603">
        <ele>336.551</ele>
        <time>2012-02-10T09:47:03Z</time>
      </trkpt>
      <trkpt lat="47.291" lon="4.976">
        <ele>335.193</ele>
        <time>2012-02-10T09:47:14Z</time>
      </trkpt>
      <trkpt lat="47.29077" lon="4.97585">
        <ele>332.453</ele>
        <time>2012-02-10T09:47:25Z</time>
      </trkpt>
      <trkpt lat="47.29065" lon="4.97583">
        <ele>332.289</ele>
        <time>2012-02-10T09:47:36Z</time>
      </trkpt>
      <trkpt lat="47.29058" lon="4.9756">
        <ele>333.369</ele>
        <time>2012-02-10T09:47:47Z</time>
      </trkpt>
      <trkpt lat="47.2906" lon="4.97547">
        <ele>331.975</ele>
        <time>2012-02-10T09:47:58Z</time>
      </trkpt>
      <trkpt lat="47.29062" lon="4.97525">
        <ele>326.876</ele>
        <time>2012-02-10T09:48:09Z</time>
      </trkpt>
      <trkpt lat="47.29063" lon="4.97507">
        <ele>325.968</ele>
        <time>2012-02-10T09:48:20Z</time>
      </trkpt>
      <trkpt lat="47.29068" lon="4.97495">
        <ele>327.303</ele>
        <time>2012-02-10T09:48:31Z</time>
      </trkpt>
      <trkpt lat="47.29078" lon="4.97477">
        <ele>327.112</ele>
        <time>2012-02-10T09:48:42Z</time>
      </trkpt>
      <trkpt lat="47.29082" lon="4.97458">
        <ele>326.902</ele>
        <time>2012-02-10T09:48:53Z</time>
      </trkpt>
      <trkpt lat="47.29083" lon="4.97442">
        <ele>325.663</ele>
        <time>2012-02-10T09:49:04Z</time>
      </trkpt>
      <trkpt lat="47.29087" lon="4.9742">
        <ele>324.594</ele>
        <time>2012-02-10T09:49:15Z</time>
      </trkpt>
      <trkpt lat="47.29098" lon="4.97398">
        <ele>329.632</ele>
        <time>2012-02-10T09:49:26Z</time>
      </trkpt>
      <trkpt lat="47.2911" lon="4.97388">
        <ele>332.401</ele>
        <time>2012-02-10T09:49:37Z</time>
      </trkpt>
      <trkpt lat="47.29127" lon="4.97375">
        <ele>335.825</ele>
        <time>2012-02-10T09:49:48Z</time>
      </trkpt>
      <trkpt lat="47.29142" lon="4.97355">
        <ele>338.252</ele>
        <time>2012-02-10T09:49:59Z</time>
      </trkpt>
      <trkpt lat="47.29155" lon="4.97345">
        <ele>343.45</ele>
        <time>2012-02-10T09:50:10Z</time>
      </trkpt>
      <trkpt lat="47.29167" lon="4.97333">
        <ele>342.91</ele>
        <time>2012-02-10T09:50:21Z</time>
      </trkpt>
      <trkpt lat="47.29173" lon="4.97323">
        <ele>343.99</ele>
        <time>2012-02-10T09:50:32Z</time>
      </trkpt>
      <trkpt lat="47.29177" lon="4.97312">
        <ele>345.597</ele>
        <time>2012-02-10T09:50:43Z</time>
      </trkpt>
      <trkpt lat="47.29185" lon="4.97295">
        <ele>343.427</ele>
        <time>2012-02-10T09:50:54Z</time>
      </trkpt>
      <trkpt lat="47.29198" lon="4.97285">
        <ele>345.161</ele>
        <time>2012-02-10T09:51:05Z</time>
      </trkpt>
      <trkpt lat="47.29213" lon="4.97267">
        <ele>348.515</ele>
        <time>2012-02-10T09:51:16Z</time>
      </trkpt>
      <trkpt lat="47.29223" lon="4.97252">
        <ele>350.658</ele>
        <time>2012-02-10T09:51:27Z</time>
      </trkpt>
      <trkpt lat="47.2924" lon="4.97238">
        <ele>348.708</ele>
        <time>2012-02-10T09:51:38Z</time>
      </trkpt>
      <trkpt lat="47.2924" lon="4.97232">
        <ele>349.179</ele>
        <time>2012-02-10T09:51:49Z</time>
      </trkpt>
      <trkpt lat="47.29265" lon="4.97213">
        <ele>350.571</ele>
        <time>2012-02-10T09:52:00Z</time>
      </trkpt>
      <trkpt lat="47.29283" lon="4.972">
        <ele>352.637</ele>
        <time>2012-02-10T09:52:11Z</time>
      </trkpt>
      <trkpt lat="47.29298" lon="4.97188">
        <ele>352.633</ele>
        <time>2012-02-10T09:52:22Z</time>
      </trkpt>
      <trkpt lat="47.29303" lon="4.97175">
        <ele>352.852</ele>
        <time>2012-02-10T09:52:33Z</time>
      </trkpt>
      <trkpt lat="47.29313" lon="4.97152">
        <ele>348.815</ele>
        <time>2012-02-10T09:52:44Z</time>
      </trkpt>
      <trkpt lat="47.29333" lon="4.97133">
        <ele>350.916</ele>
        <time>2012-02-10T09:52:55Z</time>
      </trkpt>
      <trkpt lat="47.29347" lon="4.97115">
        <ele>349.05</ele>
        <time>2012-02-10T09:53:06Z</time>
      </trkpt>
      <trkpt lat="47.29367" lon="4.97102">
        <ele>347.914</ele>
        <time>2012-02-10T09:53:17Z</time>
      </trkpt>
      <trkpt lat="47.29378" lon="4.97087">
        <ele>348.094</ele>
        <time>2012-02-10T09:53:28Z</time>
      </trkpt>
      <trkpt lat="47.2939" lon="4.97073">
        <ele>349.572</ele>
        <time>2012-02-10T09:53:39Z</time>
      </trkpt>
      <trkpt lat="47.29408" lon="4.97053">
        <ele>348.053</ele>
        <time>2012-02-10T09:53:50Z</time>
      </trkpt>
      <trkpt lat="47.29422" lon="4.97042">
        <ele>344.081</ele>
        <time>2012-02-10T09:54:01Z</time>
      </trkpt>
      <trkpt lat="47.29433" lon="4.97025">
        <ele>336.813</ele>
        <time>2012-02-10T09:54:12Z</time>
      </trkpt>
      <trkpt lat="47.29437" lon="4.97">
        <ele>338.865</ele>
        <time>2012-02-10T09:54:23Z</time>
      </trkpt>
      <trkpt lat="47.29452" lon="4.96987">
        <ele>336.541</ele>
        <time>2012-02-10T09:54:34Z</time>
      </trkpt>
      <trkpt lat="47.29462" lon="4.96978">
        <ele>340.543</ele>
        <time>2012-02-10T09:54:45Z</time>
      </trkpt>
      <trkpt lat="47.29475" lon="4.96965">
        <ele>337.555</ele>
        <time>2012-02-10T09:54:56Z</time>
      </trkpt>
      <trkpt lat="47.29485" lon="4.96957">
        <ele>339.409</ele>
        <time>2012-02-10T09:55:07Z</time>
      </trkpt>
      <trkpt lat="47.29497" lon="4.9695">
        <ele>340.596</ele>
        <time>2012-02-10T09:55:18Z</time>
      </trkpt>
      <trkpt lat="47.29508" lon="4.96943">
        <ele>342.374</ele>
        <time>2012-02-10T09:55:29Z</time>
      </trkpt>
      <trkpt lat="47.29518" lon="4.96937">
        <ele>345.355</ele>
        <time>2012-02-10T09:55:40Z</time>
      </trkpt>
      <trkpt lat="47.29528" lon="4.96933">
        <ele>344.047</ele>
        <time>2012-02-10T09:55:51Z</time>
      </trkpt>
      <trkpt lat="47.29543" lon="4.96933">
        <ele>345.508</ele>
        <time>2012-02-10T09:56:02Z</time>
      </trkpt>
      <trkpt lat="47.29552" lon="4.9694">
        <ele>342.527</ele>
        <time>2012-02-10T09:56:13Z</time>
      </trkpt>
      <trkpt lat="47.29555" lon="4.96945">
        <ele>339.381</ele>
        <time>2012-02-10T09:56:24Z</time>
      </trkpt>
      <trkpt lat="47.29557" lon="4.96947">
        <ele>340.197</ele>
        <time>2012-02-10T09:56:35Z</time>
      </trkpt>
      <trkpt lat="47.29557" lon="4.96947">
        <ele>340.197</ele>
        <time>2012-02-10T09:56:46Z</time>
      </trkpt>
      <trkpt lat="47.29557" lon="4.96947">
        <ele>340.197</ele>
        <time>2012-02-10T09:56:57Z</time>
      </trkpt>
      <trkpt lat="47.29557" lon="4.96947">
        <ele>340.197</ele>
        <time>2012-02-10T09:57:08Z</time>
      </trkpt>
      <trkpt lat="47.29558" lon="4.96947">
        <ele>341.538</ele>
        <time>2012-02-10T09:57:19Z</time>
      </trkpt>
      <trkpt lat="47.29558" lon="4.96947">
        <ele>341.538</ele>
        <time>2012-02-10T09:57:30Z</time>
      </trkpt>
      <trkpt lat="47.29558" lon="4.96947">
        <ele>341.538</ele>
        <time>2012-02-10T09:57:41Z</time>
      </trkpt>
      <trkpt lat="47.29558" lon="4.96945">
        <ele>341.289</ele>
        <time>2012-02-10T09:57:52Z</time>
      </trkpt>
      <trkpt lat="47.29558" lon="4.96945">
        <ele>341.289</ele>
        <time>2012-02-10T09:58:03Z</time>
      </trkpt>
      <trkpt lat="47.29558" lon="4.96945">
        <ele>340.239</ele>
        <time>2012-02-10T09:58:14Z</time>
      </trkpt>
      <trkpt lat="47.29558" lon="4.96945">
        <ele>340.239</ele>
        <time>2012-02-10T09:58:25Z</time>
      </trkpt>
      <trkpt lat="47.2956" lon="4.96943">
        <ele>339.584</ele>
        <time>2012-02-10T09:58:36Z</time>
      </trkpt>
      <trkpt lat="47.2956" lon="4.96943">
        <ele>339.584</ele>
        <time>2012-02-10T09:58:47Z</time>
      </trkpt>
      <trkpt lat="47.29562" lon="4.96942">
        <ele>340.661</ele>
        <time>2012-02-10T09:58:58Z</time>
      </trkpt>
      <trkpt lat="47.29562" lon="4.96938">
        <ele>338.36</ele>
        <time>2012-02-10T09:59:09Z</time>
      </trkpt>
      <trkpt lat="47.29563" lon="4.96935">
        <ele>339.877</ele>
        <time>2012-02-10T09:59:20Z</time>
      </trkpt>
      <trkpt lat="47.29563" lon="4.96928">
        <ele>337.826</ele>
        <time>2012-02-10T09:59:31Z</time>
      </trkpt>
      <trkpt lat="47.29563" lon="4.96923">
        <ele>340.079</ele>
        <time>2012-02-10T09:59:42Z</time>
      </trkpt>
      <trkpt lat="47.29555" lon="4.9691">
        <ele>345.803</ele>
        <time>2012-02-10T09:59:53Z</time>
      </trkpt>
      <trkpt lat="47.29548" lon="4.969">
        <ele>348.996</ele>
        <time>2012-02-10T10:00:04Z</time>
      </trkpt>
      <trkpt lat="47.29545" lon="4.96892">
        <ele>349.811</ele>
        <time>2012-02-10T10:00:15Z</time>
      </trkpt>
      <trkpt lat="47.29543" lon="4.96887">
        <ele>346.456</ele>
        <time>2012-02-10T10:00:26Z</time>
      </trkpt>
      <trkpt lat="47.29543" lon="4.96887">
        <ele>348.467</ele>
        <time>2012-02-10T10:00:37Z</time>
      </trkpt>
      <trkpt lat="47.29542" lon="4.96883">
        <ele>349.234</ele>
        <time>2012-02-10T10:00:48Z</time>
      </trkpt>
      <trkpt lat="47.2954" lon="4.96882">
        <ele>350.675</ele>
        <time>2012-02-10T10:00:59Z</time>
      </trkpt>
      <trkpt lat="47.29538" lon="4.96878">
        <ele>351.312</ele>
        <time>2012-02-10T10:01:10Z</time>
      </trkpt>
      <trkpt lat="47.29537" lon="4.9687">
        <ele>350.241</ele>
        <time>2012-02-10T10:01:21Z</time>
      </trkpt>
      <trkpt lat="47.29527" lon="4.96852">
        <ele>351.178</ele>
        <time>2012-02-10T10:01:32Z</time>
      </trkpt>
      <trkpt lat="47.29515" lon="4.96838">
        <ele>349.192</ele>
        <time>2012-02-10T10:01:43Z</time>
      </trkpt>
      <trkpt lat="47.29515" lon="4.96838">
        <ele>349.192</ele>
        <time>2012-02-10T10:01:54Z</time>
      </trkpt>
      <trkpt lat="47.29515" lon="4.96838">
        <ele>349.192</ele>
        <time>2012-02-10T10:02:05Z</time>
      </trkpt>
      <trkpt lat="47.29515" lon="4.96838">
        <ele>349.626</ele>
        <time>2012-02-10T10:02:16Z</time>
      </trkpt>
      <trkpt lat="47.29515" lon="4.96838">
        <ele>349.626</ele>
        <time>2012-02-10T10:02:27Z</time>
      </trkpt>
      <trkpt lat="47.29515" lon="4.96838">
        <ele>349.626</ele>
        <time>2012-02-10T10:02:38Z</time>
      </trkpt>
      <trkpt lat="47.29497" lon="4.9683">
        <ele>347.679</ele>
        <time>2012-02-10T10:02:49Z</time>
      </trkpt>
      <trkpt lat="47.29485" lon="4.96823">
        <ele>347.558</ele>
        <time>2012-02-10T10:03:00Z</time>
      </trkpt>
      <trkpt lat="47.29462" lon="4.96803">
        <ele>350.191</ele>
        <time>2012-02-10T10:03:11Z</time>
      </trkpt>
      <trkpt lat="47.2945" lon="4.96798">
        <ele>354.827</ele>
        <time>2012-02-10T10:03:22Z</time>
      </trkpt>
      <trkpt lat="47.29447" lon="4.96795">
        <ele>355.701</ele>
        <time>2012-02-10T10:03:33Z</time>
      </trkpt>
      <trkpt lat="47.29437" lon="4.96785">
        <ele>357.183</ele>
        <time>2012-02-10T10:03:44Z</time>
      </trkpt>
      <trkpt lat="47.29425" lon="4.96782">
        <ele>358.782</ele>
        <time>2012-02-10T10:03:55Z</time>
      </trkpt>
      <trkpt lat="47.29418" lon="4.9679">
        <ele>362.85</ele>
        <time>2012-02-10T10:04:06Z</time>
      </trkpt>
      <trkpt lat="47.29418" lon="4.96798">
        <ele>366.155</ele>
        <time>2012-02-10T10:04:17Z</time>
      </trkpt>
      <trkpt lat="47.29407" lon="4.96817">
        <ele>367.938</ele>
        <time>2012-02-10T10:04:28Z</time>
      </trkpt>
      <trkpt lat="47.29397" lon="4.96823">
        <ele>361.756</ele>
        <time>2012-02-10T10:04:39Z</time>
      </trkpt>
      <trkpt lat="47.29383" lon="4.96822">
        <ele>354.308</ele>
        <time>2012-02-10T10:04:50Z</time>
      </trkpt>
      <trkpt lat="47.2937" lon="4.96838">
        <ele>353.869</ele>
        <time>2012-02-10T10:05:01Z</time>
      </trkpt>
      <trkpt lat="47.29355" lon="4.96847">
        <ele>360.273</ele>
        <time>2012-02-10T10:05:12Z</time>
      </trkpt>
      <trkpt lat="47.29342" lon="4.96843">
        <ele>362.43</ele>
        <time>2012-02-10T10:05:23Z</time>
      </trkpt>
      <trkpt lat="47.29323" lon="4.96845">
        <ele>365.286</ele>
        <time>2012-02-10T10:05:34Z</time>
      </trkpt>
      <trkpt lat="47.29312" lon="4.96842">
        <ele>370.106</ele>
        <time>2012-02-10T10:05:45Z</time>
      </trkpt>
      <trkpt lat="47.29297" lon="4.96822">
        <ele>369.841</ele>
        <time>2012-02-10T10:05:56Z</time>
      </trkpt>
      <trkpt lat="47.29285" lon="4.96802">
        <ele>372.427</ele>
        <time>2012-02-10T10:06:07Z</time>
      </trkpt>
      <trkpt lat="47.29275" lon="4.96793">
        <ele>374.165</ele>
        <time>2012-02-10T10:06:18Z</time>
      </trkpt>
      <trkpt lat="47.29265" lon="4.96785">
        <ele>378.503</ele>
        <time>2012-02-10T10:06:29Z</time>
      </trkpt>
      <trkpt lat="47.29258" lon="4.96783">
        <ele>379.947</ele>
        <time>2012-02-10T10:06:40Z</time>
      </trkpt>
      <trkpt lat="47.29255" lon="4.96777">
        <ele>379.944</ele>
        <time>2012-02-10T10:06:51Z</time>
      </trkpt>
      <trkpt lat="47.29252" lon="4.96772">
        <ele>379.062</ele>
        <time>2012-02-10T10:07:02Z</time>
      </trkpt>
      <trkpt lat="47.2924" lon="4.9676">
        <ele>377.018</ele>
        <time>2012-02-10T10:07:13Z</time>
      </trkpt>
      <trkpt lat="47.29227" lon="4.9675">
        <ele>379.785</ele>
        <time>2012-02-10T10:07:24Z</time>
      </trkpt>
      <trkpt lat="47.29212" lon="4.96748">
        <ele>385.313</ele>
        <time>2012-02-10T10:07:35Z</time>
      </trkpt>
      <trkpt lat="47.29192" lon="4.96752">
        <ele>385.945</ele>
        <time>2012-02-10T10:07:46Z</time>
      </trkpt>
      <trkpt lat="47.29192" lon="4.96752">
        <ele>386.015</ele>
        <time>2012-02-10T10:07:57Z</time>
      </trkpt>
      <trkpt lat="47.2919" lon="4.96752">
        <ele>387.913</ele>
        <time>2012-02-10T10:08:08Z</time>
      </trkpt>
      <trkpt lat="47.2919" lon="4.96752">
        <ele>387.913</ele>
        <time>2012-02-10T10:08:19Z</time>
      </trkpt>
      <trkpt lat="47.2919" lon="4.96752">
        <ele>389.83</ele>
        <time>2012-02-10T10:08:30Z</time>
      </trkpt>
      <trkpt lat="47.2919" lon="4.96752">
        <ele>390.101</ele>
        <time>2012-02-10T10:08:41Z</time>
      </trkpt>
      <trkpt lat="47.29188" lon="4.9675">
        <ele>390.92</ele>
        <time>2012-02-10T10:08:52Z</time>
      </trkpt>
      <trkpt lat="47.29188" lon="4.9675">
        <ele>390.92</ele>
        <time>2012-02-10T10:09:03Z</time>
      </trkpt>
      <trkpt lat="47.29188" lon="4.9675">
        <ele>390.516</ele>
        <time>2012-02-10T10:09:14Z</time>
      </trkpt>
      <trkpt lat="47.29188" lon="4.9675">
        <ele>391.671</ele>
        <time>2012-02-10T10:09:25Z</time>
      </trkpt>
      <trkpt lat="47.29187" lon="4.9675">
        <ele>394.6</ele>
        <time>2012-02-10T10:09:36Z</time>
      </trkpt>
      <trkpt lat="47.29185" lon="4.96748">
        <ele>393.823</ele>
        <time>2012-02-10T10:09:47Z</time>
      </trkpt>
      <trkpt lat="47.29185" lon="4.96748">
        <ele>393.823</ele>
        <time>2012-02-10T10:09:58Z</time>
      </trkpt>
      <trkpt lat="47.29185" lon="4.96748">
        <ele>393.823</ele>
        <time>2012-02-10T10:10:09Z</time>
      </trkpt>
      <trkpt lat="47.29185" lon="4.96748">
        <ele>393.677</ele>
        <time>2012-02-10T10:10:20Z</time>
      </trkpt>
      <trkpt lat="47.29185" lon="4.96748">
        <ele>393.677</ele>
        <time>2012-02-10T10:10:31Z</time>
      </trkpt>
      <trkpt lat="47.29183" lon="4.96747">
        <ele>393.273</ele>
        <time>2012-02-10T10:10:42Z</time>
      </trkpt>
      <trkpt lat="47.29182" lon="4.96747">
        <ele>393.456</ele>
        <time>2012-02-10T10:10:53Z</time>
      </trkpt>
      <trkpt lat="47.29177" lon="4.9675">
        <ele>395.054</ele>
        <time>2012-02-10T10:11:04Z</time>
      </trkpt>
      <trkpt lat="47.29167" lon="4.9675">
        <ele>396.647</ele>
        <time>2012-02-10T10:11:15Z</time>
      </trkpt>
      <trkpt lat="47.29153" lon="4.96745">
        <ele>396.725</ele>
        <time>2012-02-10T10:11:26Z</time>
      </trkpt>
      <trkpt lat="47.29148" lon="4.96745">
        <ele>397.425</ele>
        <time>2012-02-10T10:11:37Z</time>
      </trkpt>
      <trkpt lat="47.2914" lon="4.96738">
        <ele>395.942</ele>
        <time>2012-02-10T10:11:48Z</time>
      </trkpt>
      <trkpt lat="47.29127" lon="4.96732">
        <ele>398.005</ele>
        <time>2012-02-10T10:11:59Z</time>
      </trkpt>
      <trkpt lat="47.29108" lon="4.96722">
        <ele>403.283</ele>
        <time>2012-02-10T10:12:10Z</time>
      </trkpt>
      <trkpt lat="47.29093" lon="4.9672">
        <ele>407.371</ele>
        <time>2012-02-10T10:12:21Z</time>
      </trkpt>
      <trkpt lat="47.29077" lon="4.96698">
        <ele>403.343</ele>
        <time>2012-02-10T10:12:32Z</time>
      </trkpt>
      <trkpt lat="47.29063" lon="4.96698">
        <ele>407.491</ele>
        <time>2012-02-10T10:12:43Z</time>
      </trkpt>
      <trkpt lat="47.29048" lon="4.9669">
        <ele>406.561</ele>
        <time>2012-02-10T10:12:54Z</time>
      </trkpt>
      <trkpt lat="47.2903" lon="4.96683">
        <ele>404.826</ele>
        <time>2012-02-10T10:13:05Z</time>
      </trkpt>
      <trkpt lat="47.29013" lon="4.96677">
        <ele>409.203</ele>
        <time>2012-02-10T10:13:16Z</time>
      </trkpt>
      <trkpt lat="47.29005" lon="4.96663">
        <ele>406.646</ele>
        <time>2012-02-10T10:13:27Z</time>
      </trkpt>
      <trkpt lat="47.28987" lon="4.9665">
        <ele>409.409</ele>
        <time>2012-02-10T10:13:38Z</time>
      </trkpt>
      <trkpt lat="47.2897" lon="4.96647">
        <ele>414.733</ele>
        <time>2012-02-10T10:13:49Z</time>
      </trkpt>
      <trkpt lat="47.28955" lon="4.96643">
        <ele>420.492</ele>
        <time>2012-02-10T10:14:00Z</time>
      </trkpt>
      <trkpt lat="47.28942" lon="4.96642">
        <ele>420.408</ele>
        <time>2012-02-10T10:14:11Z</time>
      </trkpt>
      <trkpt lat="47.2893" lon="4.96658">
        <ele>429.24</ele>
        <time>2012-02-10T10:14:22Z</time>
      </trkpt>
      <trkpt lat="47.28917" lon="4.9666">
        <ele>432.599</ele>
        <time>2012-02-10T10:14:33Z</time>
      </trkpt>
      <trkpt lat="47.28908" lon="4.96655">
        <ele>432.144</ele>
        <time>2012-02-10T10:14:44Z</time>
      </trkpt>
      <trkpt lat="47.2889" lon="4.9664">
        <ele>429.291</ele>
        <time>2012-02-10T10:14:55Z</time>
      </trkpt>
      <trkpt lat="47.28862" lon="4.96635">
        <ele>434.168</ele>
        <time>2012-02-10T10:15:06Z</time>
      </trkpt>
      <trkpt lat="47.2884" lon="4.9663">
        <ele>439.761</ele>
        <time>2012-02-10T10:15:17Z</time>
      </trkpt>
      <trkpt lat="47.28827" lon="4.96628">
        <ele>440.18</ele>
        <time>2012-02-10T10:15:28Z</time>
      </trkpt>
      <trkpt lat="47.28808" lon="4.96617">
        <ele>435.965</ele>
        <time>2012-02-10T10:15:39Z</time>
      </trkpt>
      <trkpt lat="47.28787" lon="4.96597">
        <ele>436.033</ele>
        <time>2012-02-10T10:15:50Z</time>
      </trkpt>
      <trkpt lat="47.28768" lon="4.9659">
        <ele>437.968</ele>
        <time>2012-02-10T10:16:01Z</time>
      </trkpt>
      <trkpt lat="47.2875" lon="4.96583">
        <ele>444.553</ele>
        <time>2012-02-10T10:16:12Z</time>
      </trkpt>
      <trkpt lat="47.28747" lon="4.96567">
        <ele>447.098</ele>
        <time>2012-02-10T10:16:23Z</time>
      </trkpt>
      <trkpt lat="47.28747" lon="4.96537">
        <ele>444.172</ele>
        <time>2012-02-10T10:16:34Z</time>
      </trkpt>
      <trkpt lat="47.28748" lon="4.96527">
        <ele>442.401</ele>
        <time>2012-02-10T10:16:45Z</time>
      </trkpt>
      <trkpt lat="47.28747" lon="4.96523">
        <ele>442.481</ele>
        <time>2012-02-10T10:16:56Z</time>
      </trkpt>
      <trkpt lat="47.2875" lon="4.96508">
        <ele>442.734</ele>
        <time>2012-02-10T10:17:07Z</time>
      </trkpt>
      <trkpt lat="47.2875" lon="4.96498">
        <ele>442.505</ele>
        <time>2012-02-10T10:17:18Z</time>
      </trkpt>
      <trkpt lat="47.28748" lon="4.96488">
        <ele>443.013</ele>
        <time>2012-02-10T10:17:29Z</time>
      </trkpt>
      <trkpt lat="47.28748" lon="4.96488">
        <ele>443.332</ele>
        <time>2012-02-10T10:17:40Z</time>
      </trkpt>
      <trkpt lat="47.28748" lon="4.9648">
        <ele>442.038</ele>
        <time>2012-02-10T10:17:51Z</time>
      </trkpt>
      <trkpt lat="47.28748" lon="4.9648">
        <ele>442.038</ele>
        <time>2012-02-10T10:18:02Z</time>
      </trkpt>
      <trkpt lat="47.28747" lon="4.96477">
        <ele>442.986</ele>
        <time>2012-02-10T10:18:13Z</time>
      </trkpt>
      <trkpt lat="47.28747" lon="4.96477">
        <ele>442.986</ele>
        <time>2012-02-10T10:18:24Z</time>
      </trkpt>
      <trkpt lat="47.28747" lon="4.96477">
        <ele>442.986</ele>
        <time>2012-02-10T10:18:35Z</time>
      </trkpt>
      <trkpt lat="47.28747" lon="4.96477">
        <ele>442.986</ele>
        <time>2012-02-10T10:18:46Z</time>
      </trkpt>
      <trkpt lat="47.28747" lon="4.96477">
        <ele>442.986</ele>
        <time>2012-02-10T10:18:57Z</time>
      </trkpt>
      <trkpt lat="47.28747" lon="4.96475">
        <ele>442.076</ele>
        <time>2012-02-10T10:19:08Z</time>
      </trkpt>
      <trkpt lat="47.28745" lon="4.96467">
        <ele>442.48</ele>
        <time>2012-02-10T10:19:19Z</time>
      </trkpt>
      <trkpt lat="47.28742" lon="4.96452">
        <ele>440.342</ele>
        <time>2012-02-10T10:19:30Z</time>
      </trkpt>
      <trkpt lat="47.28737" lon="4.96442">
        <ele>439.758</ele>
        <time>2012-02-10T10:19:41Z</time>
      </trkpt>
      <trkpt lat="47.2873" lon="4.96423">
        <ele>440.563</ele>
        <time>2012-02-10T10:19:52Z</time>
      </trkpt>
      <trkpt lat="47.28732" lon="4.96422">
        <ele>440.423</ele>
        <time>2012-02-10T10:20:03Z</time>
      </trkpt>
      <trkpt lat="47.28722" lon="4.96398">
        <ele>441.128</ele>
        <time>2012-02-10T10:20:14Z</time>
      </trkpt>
      <trkpt lat="47.28707" lon="4.96368">
        <ele>443.063</ele>
        <time>2012-02-10T10:20:25Z</time>
      </trkpt>
      <trkpt lat="47.28702" lon="4.96348">
        <ele>443.223</ele>
        <time>2012-02-10T10:20:36Z</time>
      </trkpt>
      <trkpt lat="47.2869" lon="4.96318">
        <ele>441.931</ele>
        <time>2012-02-10T10:20:47Z</time>
      </trkpt>
      <trkpt lat="47.28685" lon="4.96303">
        <ele>442.246</ele>
        <time>2012-02-10T10:20:58Z</time>
      </trkpt>
      <trkpt lat="47.28682" lon="4.96288">
        <ele>440.255</ele>
        <time>2012-02-10T10:21:09Z</time>
      </trkpt>
      <trkpt lat="47.28673" lon="4.96275">
        <ele>440.042</ele>
        <time>2012-02-10T10:21:20Z</time>
      </trkpt>
      <trkpt lat="47.2865" lon="4.96262">
        <ele>445.72</ele>
        <time>2012-02-10T10:21:31Z</time>
      </trkpt>
      <trkpt lat="47.28635" lon="4.96245">
        <ele>444.266</ele>
        <time>2012-02-10T10:21:42Z</time>
      </trkpt>
      <trkpt lat="47.2862" lon="4.96232">
        <ele>444.063</ele>
        <time>2012-02-10T10:21:53Z</time>
      </trkpt>
      <trkpt lat="47.28607" lon="4.96218">
        <ele>442.245</ele>
        <time>2012-02-10T10:22:04Z</time>
      </trkpt>
      <trkpt lat="47.28592" lon="4.962">
        <ele>440.882</ele>
        <time>2012-02-10T10:22:15Z</time>
      </trkpt>
      <trkpt lat="47.28588" lon="4.96207">
        <ele>442.565</ele>
        <time>2012-02-10T10:22:26Z</time>
      </trkpt>
      <trkpt lat="47.28578" lon="4.96195">
        <ele>440.669</ele>
        <time>2012-02-10T10:22:37Z</time>
      </trkpt>
      <trkpt lat="47.28568" lon="4.96188">
        <ele>442.878</ele>
        <time>2012-02-10T10:22:48Z</time>
      </trkpt>
      <trkpt lat="47.28552" lon="4.96185">
        <ele>445.247</ele>
        <time>2012-02-10T10:22:59Z</time>
      </trkpt>
      <trkpt lat="47.28547" lon="4.96183">
        <ele>445.148</ele>
        <time>2012-02-10T10:23:10Z</time>
      </trkpt>
      <trkpt lat="47.28537" lon="4.96155">
        <ele>442.405</ele>
        <time>2012-02-10T10:23:21Z</time>
      </trkpt>
      <trkpt lat="47.28525" lon="4.9614">
        <ele>442.089</ele>
        <time>2012-02-10T10:23:32Z</time>
      </trkpt>
      <trkpt lat="47.28523" lon="4.96138">
        <ele>442.147</ele>
        <time>2012-02-10T10:23:43Z</time>
      </trkpt>
      <trkpt lat="47.28518" lon="4.96138">
        <ele>442.31</ele>
        <time>2012-02-10T10:23:54Z</time>
      </trkpt>
      <trkpt lat="47.28517" lon="4.96137">
        <ele>441.993</ele>
        <time>2012-02-10T10:24:05Z</time>
      </trkpt>
      <trkpt lat="47.28517" lon="4.9614">
        <ele>442.167</ele>
        <time>2012-02-10T10:24:16Z</time>
      </trkpt>
      <trkpt lat="47.28518" lon="4.96145">
        <ele>442.319</ele>
        <time>2012-02-10T10:24:27Z</time>
      </trkpt>
      <trkpt lat="47.28517" lon="4.96147">
        <ele>442.487</ele>
        <time>2012-02-10T10:24:38Z</time>
      </trkpt>
      <trkpt lat="47.28517" lon="4.96153">
        <ele>442.673</ele>
        <time>2012-02-10T10:24:49Z</time>
      </trkpt>
      <trkpt lat="47.28515" lon="4.9615">
        <ele>442.724</ele>
        <time>2012-02-10T10:25:00Z</time>
      </trkpt>
      <trkpt lat="47.28512" lon="4.9615">
        <ele>442.473</ele>
        <time>2012-02-10T10:25:11Z</time>
      </trkpt>
      <trkpt lat="47.28513" lon="4.96152">
        <ele>442.662</ele>
        <time>2012-02-10T10:25:22Z</time>
      </trkpt>
      <trkpt lat="47.28512" lon="4.96152">
        <ele>442.141</ele>
        <time>2012-02-10T10:25:33Z</time>
      </trkpt>
      <trkpt lat="47.2851" lon="4.96143">
        <ele>440.341</ele>
        <time>2012-02-10T10:25:44Z</time>
      </trkpt>
      <trkpt lat="47.28508" lon="4.96143">
        <ele>440.245</ele>
        <time>2012-02-10T10:25:55Z</time>
      </trkpt>
      <trkpt lat="47.28508" lon="4.96143">
        <ele>440.245</ele>
        <time>2012-02-10T10:26:06Z</time>
      </trkpt>
      <trkpt lat="47.285" lon="4.96137">
        <ele>439.707</ele>
        <time>2012-02-10T10:26:17Z</time>
      </trkpt>
      <trkpt lat="47.28498" lon="4.96133">
        <ele>439.667</ele>
        <time>2012-02-10T10:26:28Z</time>
      </trkpt>
      <trkpt lat="47.28497" lon="4.96133">
        <ele>439.942</ele>
        <time>2012-02-10T10:26:39Z</time>
      </trkpt>
      <trkpt lat="47.28488" lon="4.96118">
        <ele>438.973</ele>
        <time>2012-02-10T10:26:50Z</time>
      </trkpt>
      <trkpt lat="47.2848" lon="4.9612">
        <ele>437.875</ele>
        <time>2012-02-10T10:27:01Z</time>
      </trkpt>
      <trkpt lat="47.2848" lon="4.96125">
        <ele>438.023</ele>
        <time>2012-02-10T10:27:12Z</time>
      </trkpt>
      <trkpt lat="47.2848" lon="4.96128">
        <ele>438.477</ele>
        <time>2012-02-10T10:27:23Z</time>
      </trkpt>
      <trkpt lat="47.28473" lon="4.96115">
        <ele>437.991</ele>
        <time>2012-02-10T10:27:34Z</time>
      </trkpt>
      <trkpt lat="47.28472" lon="4.96118">
        <ele>438.236</ele>
        <time>2012-02-10T10:27:45Z</time>
      </trkpt>
      <trkpt lat="47.2847" lon="4.96115">
        <ele>438.212</ele>
        <time>2012-02-10T10:27:56Z</time>
      </trkpt>
      <trkpt lat="47.28467" lon="4.96107">
        <ele>438.134</ele>
        <time>2012-02-10T10:28:07Z</time>
      </trkpt>
      <trkpt lat="47.28465" lon="4.96113">
        <ele>437.893</ele>
        <time>2012-02-10T10:28:18Z</time>
      </trkpt>
      <trkpt lat="47.28463" lon="4.96113">
        <ele>444.399</ele>
        <time>2012-02-10T10:28:29Z</time>
      </trkpt>
      <trkpt lat="47.2846" lon="4.96115">
        <ele>444.413</ele>
        <time>2012-02-10T10:28:40Z</time>
      </trkpt>
      <trkpt lat="47.28457" lon="4.96112">
        <ele>443.439</ele>
        <time>2012-02-10T10:28:51Z</time>
      </trkpt>
      <trkpt lat="47.28448" lon="4.96092">
        <ele>440.893</ele>
        <time>2012-02-10T10:29:02Z</time>
      </trkpt>
      <trkpt lat="47.28443" lon="4.96088">
        <ele>439.593</ele>
        <time>2012-02-10T10:29:13Z</time>
      </trkpt>
      <trkpt lat="47.28437" lon="4.96083">
        <ele>438.478</ele>
        <time>2012-02-10T10:29:24Z</time>
      </trkpt>
      <trkpt lat="47.28433" lon="4.96083">
        <ele>437.837</ele>
        <time>2012-02-10T10:29:35Z</time>
      </trkpt>
      <trkpt lat="47.28432" lon="4.96093">
        <ele>437.508</ele>
        <time>2012-02-10T10:29:46Z</time>
      </trkpt>
      <trkpt lat="47.2841" lon="4.96075">
        <ele>437.003</ele>
        <time>2012-02-10T10:29:57Z</time>
      </trkpt>
      <trkpt lat="47.28397" lon="4.96058">
        <ele>435.954</ele>
        <time>2012-02-10T10:30:08Z</time>
      </trkpt>
      <trkpt lat="47.28397" lon="4.9606">
        <ele>435.849</ele>
        <time>2012-02-10T10:30:19Z</time>
      </trkpt>
      <trkpt lat="47.28397" lon="4.96058">
        <ele>435.959</ele>
        <time>2012-02-10T10:30:30Z</time>
      </trkpt>
      <trkpt lat="47.28395" lon="4.96058">
        <ele>431.871</ele>
        <time>2012-02-10T10:30:41Z</time>
      </trkpt>
      <trkpt lat="47.28395" lon="4.96058">
        <ele>431.871</ele>
        <time>2012-02-10T10:30:52Z</time>
      </trkpt>
      <trkpt lat="47.28392" lon="4.96058">
        <ele>432.072</ele>
        <time>2012-02-10T10:31:03Z</time>
      </trkpt>
      <trkpt lat="47.28392" lon="4.96058">
        <ele>431.958</ele>
        <time>2012-02-10T10:31:14Z</time>
      </trkpt>
      <trkpt lat="47.28392" lon="4.96057">
        <ele>431.593</ele>
        <time>2012-02-10T10:31:25Z</time>
      </trkpt>
      <trkpt lat="47.28392" lon="4.96057">
        <ele>431.593</ele>
        <time>2012-02-10T10:31:36Z</time>
      </trkpt>
      <trkpt lat="47.28383" lon="4.96045">
        <ele>431.686</ele>
        <time>2012-02-10T10:31:47Z</time>
      </trkpt>
      <trkpt lat="47.28383" lon="4.96045">
        <ele>431.686</ele>
        <time>2012-02-10T10:31:58Z</time>
      </trkpt>
      <trkpt lat="47.28383" lon="4.96047">
        <ele>431.867</ele>
        <time>2012-02-10T10:32:09Z</time>
      </trkpt>
      <trkpt lat="47.28383" lon="4.96047">
        <ele>431.867</ele>
        <time>2012-02-10T10:32:20Z</time>
      </trkpt>
      <trkpt lat="47.28383" lon="4.96043">
        <ele>431.784</ele>
        <time>2012-02-10T10:32:31Z</time>
      </trkpt>
      <trkpt lat="47.28382" lon="4.96043">
        <ele>431.711</ele>
        <time>2012-02-10T10:32:42Z</time>
      </trkpt>
      <trkpt lat="47.28382" lon="4.96042">
        <ele>431.512</ele>
        <time>2012-02-10T10:32:53Z</time>
      </trkpt>
      <trkpt lat="47.28382" lon="4.96038">
        <ele>431.427</ele>
        <time>2012-02-10T10:33:04Z</time>
      </trkpt>
      <trkpt lat="47.28382" lon="4.96038">
        <ele>431.427</ele>
        <time>2012-02-10T10:33:15Z</time>
      </trkpt>
      <trkpt lat="47.28382" lon="4.96038">
        <ele>431.427</ele>
        <time>2012-02-10T10:33:26Z</time>
      </trkpt>
      <trkpt lat="47.28382" lon="4.96038">
        <ele>431.427</ele>
        <time>2012-02-10T10:33:37Z</time>
      </trkpt>
      <trkpt lat="47.28382" lon="4.96038">
        <ele>431.427</ele>
        <time>2012-02-10T10:33:48Z</time>
      </trkpt>
      <trkpt lat="47.2838" lon="4.96035">
        <ele>431.668</ele>
        <time>2012-02-10T10:33:59Z</time>
      </trkpt>
      <trkpt lat="47.2838" lon="4.96035">
        <ele>431.668</ele>
        <time>2012-02-10T10:34:10Z</time>
      </trkpt>
      <trkpt lat="47.2837" lon="4.96023">
        <ele>431.66</ele>
        <time>2012-02-10T10:34:21Z</time>
      </trkpt>
      <trkpt lat="47.2837" lon="4.96023">
        <ele>431.636</ele>
        <time>2012-02-10T10:34:32Z</time>
      </trkpt>
      <trkpt lat="47.28358" lon="4.96008">
        <ele>431.382</ele>
        <time>2012-02-10T10:34:43Z</time>
      </trkpt>
      <trkpt lat="47.28358" lon="4.96008">
        <ele>431.382</ele>
        <time>2012-02-10T10:34:54Z</time>
      </trkpt>
      <trkpt lat="47.28358" lon="4.96008">
        <ele>431.382</ele>
        <time>2012-02-10T10:35:05Z</time>
      </trkpt>
      <trkpt lat="47.28358" lon="4.96008">
        <ele>431.382</ele>
        <time>2012-02-10T10:35:16Z</time>
      </trkpt>
      <trkpt lat="47.28358" lon="4.96008">
        <ele>431.382</ele>
        <time>2012-02-10T10:35:27Z</time>
      </trkpt>
      <trkpt lat="47.28358" lon="4.96008">
        <ele>431.382</ele>
        <time>2012-02-10T10:35:38Z</time>
      </trkpt>
      <trkpt lat="47.28358" lon="4.96008">
        <ele>431.382</ele>
        <time>2012-02-10T10:35:49Z</time>
      </trkpt>
      <trkpt lat="47.28358" lon="4.96008">
        <ele>431.382</ele>
        <time>2012-02-10T10:36:00Z</time>
      </trkpt>
      <trkpt lat="47.2836" lon="4.96008">
        <ele>431.462</ele>
        <time>2012-02-10T10:36:11Z</time>
      </trkpt>
      <trkpt lat="47.28373" lon="4.96055">
        <ele>432.06</ele>
        <time>2012-02-10T10:36:22Z</time>
      </trkpt>
      <trkpt lat="47.2837" lon="4.96043">
        <ele>431.923</ele>
        <time>2012-02-10T10:36:33Z</time>
      </trkpt>
      <trkpt lat="47.28358" lon="4.9605">
        <ele>432.229</ele>
        <time>2012-02-10T10:36:44Z</time>
      </trkpt>
      <trkpt lat="47.28353" lon="4.96063">
        <ele>432.332</ele>
        <time>2012-02-10T10:36:55Z</time>
      </trkpt>
      <trkpt lat="47.28348" lon="4.9608">
        <ele>432.174</ele>
        <time>2012-02-10T10:37:06Z</time>
      </trkpt>
      <trkpt lat="47.28358" lon="4.96127">
        <ele>420.964</ele>
        <time>2012-02-10T10:37:17Z</time>
      </trkpt>
      <trkpt lat="47.28348" lon="4.9613">
        <ele>409.99</ele>
        <time>2012-02-10T10:37:28Z</time>
      </trkpt>
      <trkpt lat="47.2834" lon="4.96137">
        <ele>415.081</ele>
        <time>2012-02-10T10:37:39Z</time>
      </trkpt>
      <trkpt lat="47.28333" lon="4.96138">
        <ele>415.516</ele>
        <time>2012-02-10T10:37:50Z</time>
      </trkpt>
      <trkpt lat="47.2833" lon="4.9616">
        <ele>415.526</ele>
        <time>2012-02-10T10:38:01Z</time>
      </trkpt>
      <trkpt lat="47.28328" lon="4.9617">
        <ele>416.896</ele>
        <time>2012-02-10T10:38:12Z</time>
      </trkpt>
      <trkpt lat="47.28322" lon="4.96182">
        <ele>418.319</ele>
        <time>2012-02-10T10:38:23Z</time>
      </trkpt>
      <trkpt lat="47.28317" lon="4.96193">
        <ele>420.256</ele>
        <time>2012-02-10T10:38:34Z</time>
      </trkpt>
      <trkpt lat="47.28303" lon="4.96188">
        <ele>419.366</ele>
        <time>2012-02-10T10:38:45Z</time>
      </trkpt>
      <trkpt lat="47.28307" lon="4.96223">
        <ele>422.038</ele>
        <time>2012-02-10T10:38:56Z</time>
      </trkpt>
      <trkpt lat="47.283" lon="4.96228">
        <ele>424.078</ele>
        <time>2012-02-10T10:39:07Z</time>
      </trkpt>
      <trkpt lat="47.283" lon="4.96233">
        <ele>424.589</ele>
        <time>2012-02-10T10:39:18Z</time>
      </trkpt>
      <trkpt lat="47.28292" lon="4.9623">
        <ele>426.099</ele>
        <time>2012-02-10T10:39:29Z</time>
      </trkpt>
      <trkpt lat="47.28292" lon="4.96233">
        <ele>426.645</ele>
        <time>2012-02-10T10:39:40Z</time>
      </trkpt>
      <trkpt lat="47.28288" lon="4.9625">
        <ele>428.081</ele>
        <time>2012-02-10T10:39:51Z</time>
      </trkpt>
      <trkpt lat="47.28287" lon="4.96298">
        <ele>430.468</ele>
        <time>2012-02-10T10:40:02Z</time>
      </trkpt>
      <trkpt lat="47.28282" lon="4.96303">
        <ele>431.097</ele>
        <time>2012-02-10T10:40:13Z</time>
      </trkpt>
      <trkpt lat="47.28278" lon="4.96333">
        <ele>432.465</ele>
        <time>2012-02-10T10:40:24Z</time>
      </trkpt>
      <trkpt lat="47.28272" lon="4.96355">
        <ele>433.462</ele>
        <time>2012-02-10T10:40:35Z</time>
      </trkpt>
      <trkpt lat="47.28263" lon="4.96373">
        <ele>434.22</ele>
        <time>2012-02-10T10:40:46Z</time>
      </trkpt>
      <trkpt lat="47.28253" lon="4.96403">
        <ele>436.197</ele>
        <time>2012-02-10T10:40:57Z</time>
      </trkpt>
      <trkpt lat="47.28242" lon="4.96392">
        <ele>436.182</ele>
        <time>2012-02-10T10:41:08Z</time>
      </trkpt>
      <trkpt lat="47.28232" lon="4.96418">
        <ele>437.845</ele>
        <time>2012-02-10T10:41:19Z</time>
      </trkpt>
      <trkpt lat="47.28218" lon="4.96417">
        <ele>438.401</ele>
        <time>2012-02-10T10:41:30Z</time>
      </trkpt>
      <trkpt lat="47.28208" lon="4.96437">
        <ele>439.865</ele>
        <time>2012-02-10T10:41:41Z</time>
      </trkpt>
      <trkpt lat="47.28198" lon="4.96468">
        <ele>442.152</ele>
        <time>2012-02-10T10:41:52Z</time>
      </trkpt>
      <trkpt lat="47.28192" lon="4.96498">
        <ele>444.265</ele>
        <time>2012-02-10T10:42:03Z</time>
      </trkpt>
      <trkpt lat="47.2818" lon="4.96523">
        <ele>446.165</ele>
        <time>2012-02-10T10:42:14Z</time>
      </trkpt>
      <trkpt lat="47.2817" lon="4.96552">
        <ele>447.927</ele>
        <time>2012-02-10T10:42:25Z</time>
      </trkpt>
      <trkpt lat="47.28163" lon="4.96575">
        <ele>449.582</ele>
        <time>2012-02-10T10:42:36Z</time>
      </trkpt>
      <trkpt lat="47.28155" lon="4.96592">
        <ele>452.158</ele>
        <time>2012-02-10T10:42:47Z</time>
      </trkpt>
      <trkpt lat="47.28155" lon="4.96615">
        <ele>453.625</ele>
        <time>2012-02-10T10:42:58Z</time>
      </trkpt>
      <trkpt lat="47.28148" lon="4.96622">
        <ele>454.676</ele>
        <time>2012-02-10T10:43:09Z</time>
      </trkpt>
      <trkpt lat="47.28147" lon="4.9665">
        <ele>456.256</ele>
        <time>2012-02-10T10:43:20Z</time>
      </trkpt>
      <trkpt lat="47.28143" lon="4.96682">
        <ele>458.783</ele>
        <time>2012-02-10T10:43:31Z</time>
      </trkpt>
      <trkpt lat="47.28138" lon="4.96697">
        <ele>459.366</ele>
        <time>2012-02-10T10:43:42Z</time>
      </trkpt>
      <trkpt lat="47.28133" lon="4.9672">
        <ele>461.038</ele>
        <time>2012-02-10T10:43:53Z</time>
      </trkpt>
      <trkpt lat="47.28132" lon="4.96757">
        <ele>464.305</ele>
        <time>2012-02-10T10:44:04Z</time>
      </trkpt>
      <trkpt lat="47.2813" lon="4.9678">
        <ele>466.287</ele>
        <time>2012-02-10T10:44:15Z</time>
      </trkpt>
      <trkpt lat="47.28127" lon="4.96805">
        <ele>467.217</ele>
        <time>2012-02-10T10:44:26Z</time>
      </trkpt>
      <trkpt lat="47.28123" lon="4.9683">
        <ele>467.696</ele>
        <time>2012-02-10T10:44:37Z</time>
      </trkpt>
      <trkpt lat="47.2812" lon="4.96858">
        <ele>469.872</ele>
        <time>2012-02-10T10:44:48Z</time>
      </trkpt>
      <trkpt lat="47.28112" lon="4.96868">
        <ele>471.987</ele>
        <time>2012-02-10T10:44:59Z</time>
      </trkpt>
      <trkpt lat="47.28108" lon="4.9689">
        <ele>474.522</ele>
        <time>2012-02-10T10:45:10Z</time>
      </trkpt>
      <trkpt lat="47.28108" lon="4.96927">
        <ele>478.35</ele>
        <time>2012-02-10T10:45:21Z</time>
      </trkpt>
      <trkpt lat="47.28107" lon="4.96955">
        <ele>480.152</ele>
        <time>2012-02-10T10:45:32Z</time>
      </trkpt>
      <trkpt lat="47.28103" lon="4.9699">
        <ele>481.949</ele>
        <time>2012-02-10T10:45:43Z</time>
      </trkpt>
      <trkpt lat="47.28098" lon="4.9701">
        <ele>483.023</ele>
        <time>2012-02-10T10:45:54Z</time>
      </trkpt>
      <trkpt lat="47.28088" lon="4.97013">
        <ele>484.574</ele>
        <time>2012-02-10T10:46:05Z</time>
      </trkpt>
      <trkpt lat="47.28078" lon="4.9703">
        <ele>485.343</ele>
        <time>2012-02-10T10:46:16Z</time>
      </trkpt>
      <trkpt lat="47.28072" lon="4.9705">
        <ele>487.199</ele>
        <time>2012-02-10T10:46:27Z</time>
      </trkpt>
      <trkpt lat="47.28067" lon="4.97067">
        <ele>488.193</ele>
        <time>2012-02-10T10:46:38Z</time>
      </trkpt>
      <trkpt lat="47.28065" lon="4.97082">
        <ele>488.653</ele>
        <time>2012-02-10T10:46:49Z</time>
      </trkpt>
      <trkpt lat="47.2806" lon="4.9711">
        <ele>489.235</ele>
        <time>2012-02-10T10:47:00Z</time>
      </trkpt>
      <trkpt lat="47.28053" lon="4.9711">
        <ele>489.498</ele>
        <time>2012-02-10T10:47:11Z</time>
      </trkpt>
      <trkpt lat="47.28045" lon="4.97122">
        <ele>489.807</ele>
        <time>2012-02-10T10:47:22Z</time>
      </trkpt>
      <trkpt lat="47.2804" lon="4.97138">
        <ele>491.419</ele>
        <time>2012-02-10T10:47:33Z</time>
      </trkpt>
      <trkpt lat="47.28035" lon="4.97155">
        <ele>490.78</ele>
        <time>2012-02-10T10:47:44Z</time>
      </trkpt>
      <trkpt lat="47.28028" lon="4.97195">
        <ele>492.765</ele>
        <time>2012-02-10T10:47:55Z</time>
      </trkpt>
      <trkpt lat="47.28023" lon="4.97225">
        <ele>495.522</ele>
        <time>2012-02-10T10:48:06Z</time>
      </trkpt>
      <trkpt lat="47.28017" lon="4.97248">
        <ele>493.764</ele>
        <time>2012-02-10T10:48:17Z</time>
      </trkpt>
      <trkpt lat="47.2801" lon="4.97257">
        <ele>491.697</ele>
        <time>2012-02-10T10:48:28Z</time>
      </trkpt>
      <trkpt lat="47.28008" lon="4.97282">
        <ele>490.187</ele>
        <time>2012-02-10T10:48:39Z</time>
      </trkpt>
      <trkpt lat="47.28005" lon="4.97293">
        <ele>494.161</ele>
        <time>2012-02-10T10:48:50Z</time>
      </trkpt>
      <trkpt lat="47.28" lon="4.97287">
        <ele>495.437</ele>
        <time>2012-02-10T10:49:01Z</time>
      </trkpt>
      <trkpt lat="47.27995" lon="4.97305">
        <ele>500.019</ele>
        <time>2012-02-10T10:49:12Z</time>
      </trkpt>
      <trkpt lat="47.2799" lon="4.97328">
        <ele>506.165</ele>
        <time>2012-02-10T10:49:23Z</time>
      </trkpt>
      <trkpt lat="47.27987" lon="4.97327">
        <ele>501.688</ele>
        <time>2012-02-10T10:49:34Z</time>
      </trkpt>
      <trkpt lat="47.2798" lon="4.97352">
        <ele>504.625</ele>
        <time>2012-02-10T10:49:45Z</time>
      </trkpt>
      <trkpt lat="47.28107" lon="4.97587">
        <ele>330.263</ele>
        <time>2012-02-10T10:49:56Z</time>
      </trkpt>
      <trkpt lat="47.28137" lon="4.97665">
        <ele>295.577</ele>
        <time>2012-02-10T10:50:07Z</time>
      </trkpt>
      <trkpt lat="47.28145" lon="4.977">
        <ele>286.02</ele>
        <time>2012-02-10T10:50:18Z</time>
      </trkpt>
      <trkpt lat="47.28148" lon="4.9773">
        <ele>283.679</ele>
        <time>2012-02-10T10:50:29Z</time>
      </trkpt>
      <trkpt lat="47.2815" lon="4.97762">
        <ele>279.18</ele>
        <time>2012-02-10T10:50:40Z</time>
      </trkpt>
      <trkpt lat="47.28147" lon="4.97783">
        <ele>280.436</ele>
        <time>2012-02-10T10:50:51Z</time>
      </trkpt>
      <trkpt lat="47.28148" lon="4.97807">
        <ele>277.385</ele>
        <time>2012-02-10T10:51:02Z</time>
      </trkpt>
      <trkpt lat="47.28145" lon="4.9781">
        <ele>276.113</ele>
        <time>2012-02-10T10:51:13Z</time>
      </trkpt>
      <trkpt lat="47.28137" lon="4.97828">
        <ele>277.32</ele>
        <time>2012-02-10T10:51:24Z</time>
      </trkpt>
      <trkpt lat="47.2813" lon="4.97853">
        <ele>279.737</ele>
        <time>2012-02-10T10:51:35Z</time>
      </trkpt>
      <trkpt lat="47.28122" lon="4.97875">
        <ele>280.177</ele>
        <time>2012-02-10T10:51:46Z</time>
      </trkpt>
      <trkpt lat="47.2812" lon="4.97878">
        <ele>280.351</ele>
        <time>2012-02-10T10:51:57Z</time>
      </trkpt>
      <trkpt lat="47.28113" lon="4.97888">
        <ele>280.271</ele>
        <time>2012-02-10T10:52:08Z</time>
      </trkpt>
      <trkpt lat="47.2811" lon="4.97895">
        <ele>279.254</ele>
        <time>2012-02-10T10:52:19Z</time>
      </trkpt>
      <trkpt lat="47.28108" lon="4.97898">
        <ele>278.839</ele>
        <time>2012-02-10T10:52:30Z</time>
      </trkpt>
      <trkpt lat="47.28097" lon="4.97918">
        <ele>278.235</ele>
        <time>2012-02-10T10:52:41Z</time>
      </trkpt>
      <trkpt lat="47.28092" lon="4.9794">
        <ele>281.404</ele>
        <time>2012-02-10T10:52:52Z</time>
      </trkpt>
      <trkpt lat="47.28102" lon="4.97955">
        <ele>284.301</ele>
        <time>2012-02-10T10:53:03Z</time>
      </trkpt>
      <trkpt lat="47.28108" lon="4.9798">
        <ele>289.903</ele>
        <time>2012-02-10T10:53:14Z</time>
      </trkpt>
      <trkpt lat="47.28115" lon="4.98003">
        <ele>293.461</ele>
        <time>2012-02-10T10:53:25Z</time>
      </trkpt>
      <trkpt lat="47.28123" lon="4.98015">
        <ele>294.512</ele>
        <time>2012-02-10T10:53:36Z</time>
      </trkpt>
      <trkpt lat="47.28127" lon="4.98022">
        <ele>296.138</ele>
        <time>2012-02-10T10:53:47Z</time>
      </trkpt>
      <trkpt lat="47.28138" lon="4.98038">
        <ele>296.032</ele>
        <time>2012-02-10T10:53:58Z</time>
      </trkpt>
      <trkpt lat="47.28147" lon="4.98038">
        <ele>298.055</ele>
        <time>2012-02-10T10:54:09Z</time>
      </trkpt>
      <trkpt lat="47.28155" lon="4.98048">
        <ele>299.222</ele>
        <time>2012-02-10T10:54:20Z</time>
      </trkpt>
      <trkpt lat="47.28173" lon="4.98065">
        <ele>300.81</ele>
        <time>2012-02-10T10:54:31Z</time>
      </trkpt>
      <trkpt lat="47.28183" lon="4.9808">
        <ele>304.852</ele>
        <time>2012-02-10T10:54:42Z</time>
      </trkpt>
      <trkpt lat="47.28202" lon="4.98117">
        <ele>306.827</ele>
        <time>2012-02-10T10:54:53Z</time>
      </trkpt>
      <trkpt lat="47.28208" lon="4.9812">
        <ele>306.766</ele>
        <time>2012-02-10T10:55:04Z</time>
      </trkpt>
      <trkpt lat="47.2822" lon="4.98138">
        <ele>308.885</ele>
        <time>2012-02-10T10:55:15Z</time>
      </trkpt>
      <trkpt lat="47.2823" lon="4.98133">
        <ele>309.57</ele>
        <time>2012-02-10T10:55:26Z</time>
      </trkpt>
      <trkpt lat="47.2824" lon="4.98132">
        <ele>309.504</ele>
        <time>2012-02-10T10:55:37Z</time>
      </trkpt>
      <trkpt lat="47.28237" lon="4.9811">
        <ele>310.952</ele>
        <time>2012-02-10T10:55:48Z</time>
      </trkpt>
      <trkpt lat="47.28253" lon="4.98128">
        <ele>312.397</ele>
        <time>2012-02-10T10:55:59Z</time>
      </trkpt>
      <trkpt lat="47.28272" lon="4.98145">
        <ele>313.891</ele>
        <time>2012-02-10T10:56:10Z</time>
      </trkpt>
      <trkpt lat="47.28285" lon="4.9816">
        <ele>314.737</ele>
        <time>2012-02-10T10:56:21Z</time>
      </trkpt>
      <trkpt lat="47.28297" lon="4.98167">
        <ele>315.824</ele>
        <time>2012-02-10T10:56:32Z</time>
      </trkpt>
      <trkpt lat="47.28313" lon="4.98187">
        <ele>316.914</ele>
        <time>2012-02-10T10:56:43Z</time>
      </trkpt>
      <trkpt lat="47.28322" lon="4.9821">
        <ele>316.994</ele>
        <time>2012-02-10T10:56:54Z</time>
      </trkpt>
      <trkpt lat="47.28317" lon="4.9824">
        <ele>317.808</ele>
        <time>2012-02-10T10:57:05Z</time>
      </trkpt>
      <trkpt lat="47.28317" lon="4.98283">
        <ele>318.583</ele>
        <time>2012-02-10T10:57:16Z</time>
      </trkpt>
      <trkpt lat="47.28318" lon="4.983">
        <ele>318.778</ele>
        <time>2012-02-10T10:57:27Z</time>
      </trkpt>
      <trkpt lat="47.2831" lon="4.9832">
        <ele>319.126</ele>
        <time>2012-02-10T10:57:38Z</time>
      </trkpt>
      <trkpt lat="47.28295" lon="4.98318">
        <ele>319.398</ele>
        <time>2012-02-10T10:57:49Z</time>
      </trkpt>
      <trkpt lat="47.28282" lon="4.98325">
        <ele>319.97</ele>
        <time>2012-02-10T10:58:00Z</time>
      </trkpt>
      <trkpt lat="47.2827" lon="4.9834">
        <ele>320.399</ele>
        <time>2012-02-10T10:58:11Z</time>
      </trkpt>
      <trkpt lat="47.2826" lon="4.98365">
        <ele>320.853</ele>
        <time>2012-02-10T10:58:22Z</time>
      </trkpt>
      <trkpt lat="47.28255" lon="4.98372">
        <ele>320.806</ele>
        <time>2012-02-10T10:58:33Z</time>
      </trkpt>
      <trkpt lat="47.2825" lon="4.98397">
        <ele>321.074</ele>
        <time>2012-02-10T10:58:44Z</time>
      </trkpt>
      <trkpt lat="47.28233" lon="4.98385">
        <ele>323.695</ele>
        <time>2012-02-10T10:58:55Z</time>
      </trkpt>
      <trkpt lat="47.28227" lon="4.98422">
        <ele>324.098</ele>
        <time>2012-02-10T10:59:06Z</time>
      </trkpt>
      <trkpt lat="47.28217" lon="4.98435">
        <ele>325.03</ele>
        <time>2012-02-10T10:59:17Z</time>
      </trkpt>
      <trkpt lat="47.2821" lon="4.98472">
        <ele>325.207</ele>
        <time>2012-02-10T10:59:28Z</time>
      </trkpt>
      <trkpt lat="47.28195" lon="4.98485">
        <ele>325.59</ele>
        <time>2012-02-10T10:59:39Z</time>
      </trkpt>
      <trkpt lat="47.28183" lon="4.985">
        <ele>325.94</ele>
        <time>2012-02-10T10:59:50Z</time>
      </trkpt>
      <trkpt lat="47.28172" lon="4.98522">
        <ele>325.45</ele>
        <time>2012-02-10T11:00:01Z</time>
      </trkpt>
      <trkpt lat="47.28158" lon="4.9854">
        <ele>325.475</ele>
        <time>2012-02-10T11:00:12Z</time>
      </trkpt>
      <trkpt lat="47.28142" lon="4.98547">
        <ele>325.023</ele>
        <time>2012-02-10T11:00:23Z</time>
      </trkpt>
      <trkpt lat="47.28125" lon="4.98538">
        <ele>325.215</ele>
        <time>2012-02-10T11:00:34Z</time>
      </trkpt>
      <trkpt lat="47.28107" lon="4.9853">
        <ele>326</ele>
        <time>2012-02-10T11:00:45Z</time>
      </trkpt>
      <trkpt lat="47.2809" lon="4.98528">
        <ele>327.004</ele>
        <time>2012-02-10T11:00:56Z</time>
      </trkpt>
      <trkpt lat="47.28078" lon="4.98558">
        <ele>327.512</ele>
        <time>2012-02-10T11:01:07Z</time>
      </trkpt>
      <trkpt lat="47.28068" lon="4.98603">
        <ele>327.535</ele>
        <time>2012-02-10T11:01:18Z</time>
      </trkpt>
      <trkpt lat="47.28057" lon="4.98605">
        <ele>326.843</ele>
        <time>2012-02-10T11:01:29Z</time>
      </trkpt>
      <trkpt lat="47.28045" lon="4.98618">
        <ele>327.629</ele>
        <time>2012-02-10T11:01:40Z</time>
      </trkpt>
      <trkpt lat="47.28033" lon="4.98625">
        <ele>326.412</ele>
        <time>2012-02-10T11:01:51Z</time>
      </trkpt>
      <trkpt lat="47.28022" lon="4.98645">
        <ele>327.615</ele>
        <time>2012-02-10T11:02:02Z</time>
      </trkpt>
      <trkpt lat="47.2801" lon="4.9867">
        <ele>328.813</ele>
        <time>2012-02-10T11:02:13Z</time>
      </trkpt>
      <trkpt lat="47.27997" lon="4.98688">
        <ele>330.345</ele>
        <time>2012-02-10T11:02:24Z</time>
      </trkpt>
      <trkpt lat="47.27983" lon="4.98695">
        <ele>330.698</ele>
        <time>2012-02-10T11:02:35Z</time>
      </trkpt>
      <trkpt lat="47.27973" lon="4.98717">
        <ele>331.531</ele>
        <time>2012-02-10T11:02:46Z</time>
      </trkpt>
      <trkpt lat="47.27972" lon="4.98718">
        <ele>331.6</ele>
        <time>2012-02-10T11:02:57Z</time>
      </trkpt>
      <trkpt lat="47.27973" lon="4.9872">
        <ele>333.088</ele>
        <time>2012-02-10T11:03:08Z</time>
      </trkpt>
      <trkpt lat="47.27977" lon="4.98725">
        <ele>333.956</ele>
        <time>2012-02-10T11:03:19Z</time>
      </trkpt>
      <trkpt lat="47.27985" lon="4.98743">
        <ele>334.756</ele>
        <time>2012-02-10T11:03:30Z</time>
      </trkpt>
      <trkpt lat="47.27987" lon="4.98742">
        <ele>336.942</ele>
        <time>2012-02-10T11:03:41Z</time>
      </trkpt>
      <trkpt lat="47.27988" lon="4.98743">
        <ele>338.335</ele>
        <time>2012-02-10T11:03:52Z</time>
      </trkpt>
      <trkpt lat="47.27993" lon="4.98738">
        <ele>339.498</ele>
        <time>2012-02-10T11:04:03Z</time>
      </trkpt>
      <trkpt lat="47.28" lon="4.98752">
        <ele>340.345</ele>
        <time>2012-02-10T11:04:14Z</time>
      </trkpt>
      <trkpt lat="47.28013" lon="4.98778">
        <ele>341.878</ele>
        <time>2012-02-10T11:04:25Z</time>
      </trkpt>
      <trkpt lat="47.2802" lon="4.98808">
        <ele>342.927</ele>
        <time>2012-02-10T11:04:36Z</time>
      </trkpt>
      <trkpt lat="47.28033" lon="4.98828">
        <ele>344.816</ele>
        <time>2012-02-10T11:04:47Z</time>
      </trkpt>
      <trkpt lat="47.28037" lon="4.98835">
        <ele>345.203</ele>
        <time>2012-02-10T11:04:58Z</time>
      </trkpt>
      <trkpt lat="47.28043" lon="4.98837">
        <ele>346.595</ele>
        <time>2012-02-10T11:05:09Z</time>
      </trkpt>
      <trkpt lat="47.28052" lon="4.98847">
        <ele>348.885</ele>
        <time>2012-02-10T11:05:20Z</time>
      </trkpt>
      <trkpt lat="47.2806" lon="4.98848">
        <ele>351.853</ele>
        <time>2012-02-10T11:05:31Z</time>
      </trkpt>
      <trkpt lat="47.2806" lon="4.98853">
        <ele>353.379</ele>
        <time>2012-02-10T11:05:42Z</time>
      </trkpt>
      <trkpt lat="47.28058" lon="4.98835">
        <ele>356.525</ele>
        <time>2012-02-10T11:05:53Z</time>
      </trkpt>
      <trkpt lat="47.28062" lon="4.98843">
        <ele>357.92</ele>
        <time>2012-02-10T11:06:04Z</time>
      </trkpt>
      <trkpt lat="47.2807" lon="4.98857">
        <ele>358.855</ele>
        <time>2012-02-10T11:06:15Z</time>
      </trkpt>
      <trkpt lat="47.28073" lon="4.98878">
        <ele>362.28</ele>
        <time>2012-02-10T11:06:26Z</time>
      </trkpt>
      <trkpt lat="47.28075" lon="4.9889">
        <ele>362.612</ele>
        <time>2012-02-10T11:06:37Z</time>
      </trkpt>
      <trkpt lat="47.28083" lon="4.989">
        <ele>362.451</ele>
        <time>2012-02-10T11:06:48Z</time>
      </trkpt>
      <trkpt lat="47.28085" lon="4.98917">
        <ele>365.413</ele>
        <time>2012-02-10T11:06:59Z</time>
      </trkpt>
      <trkpt lat="47.28078" lon="4.98925">
        <ele>372.084</ele>
        <time>2012-02-10T11:07:10Z</time>
      </trkpt>
      <trkpt lat="47.28082" lon="4.9898">
        <ele>405.383</ele>
        <time>2012-02-10T11:07:21Z</time>
      </trkpt>
      <trkpt lat="47.28068" lon="4.99023">
        <ele>422.837</ele>
        <time>2012-02-10T11:07:32Z</time>
      </trkpt>
      <trkpt lat="47.28053" lon="4.99023">
        <ele>432.989</ele>
        <time>2012-02-10T11:07:43Z</time>
      </trkpt>
      <trkpt lat="47.28037" lon="4.9903">
        <ele>445.035</ele>
        <time>2012-02-10T11:07:54Z</time>
      </trkpt>
      <trkpt lat="47.28022" lon="4.99037">
        <ele>452.228</ele>
        <time>2012-02-10T11:08:05Z</time>
      </trkpt>
      <trkpt lat="47.28008" lon="4.99047">
        <ele>458.84</ele>
        <time>2012-02-10T11:08:16Z</time>
      </trkpt>
      <trkpt lat="47.27992" lon="4.9905">
        <ele>467.755</ele>
        <time>2012-02-10T11:08:27Z</time>
      </trkpt>
      <trkpt lat="47.27972" lon="4.99053">
        <ele>478.56</ele>
        <time>2012-02-10T11:08:38Z</time>
      </trkpt>
      <trkpt lat="47.27953" lon="4.99058">
        <ele>490.174</ele>
        <time>2012-02-10T11:08:49Z</time>
      </trkpt>
      <trkpt lat="47.27932" lon="4.99057">
        <ele>502.431</ele>
        <time>2012-02-10T11:09:00Z</time>
      </trkpt>
      <trkpt lat="47.27918" lon="4.99052">
        <ele>511.892</ele>
        <time>2012-02-10T11:09:11Z</time>
      </trkpt>
      <trkpt lat="47.27922" lon="4.9906">
        <ele>515.189</ele>
        <time>2012-02-10T11:09:22Z</time>
      </trkpt>
      <trkpt lat="47.27922" lon="4.9906">
        <ele>516.567</ele>
        <time>2012-02-10T11:09:33Z</time>
      </trkpt>
      <trkpt lat="47.27922" lon="4.99062">
        <ele>523.821</ele>
        <time>2012-02-10T11:09:44Z</time>
      </trkpt>
      <trkpt lat="47.27922" lon="4.99063">
        <ele>529.142</ele>
        <time>2012-02-10T11:09:55Z</time>
      </trkpt>
      <trkpt lat="47.27922" lon="4.99062">
        <ele>532.386</ele>
        <time>2012-02-10T11:10:06Z</time>
      </trkpt>
      <trkpt lat="47.27918" lon="4.99057">
        <ele>538.838</ele>
        <time>2012-02-10T11:10:17Z</time>
      </trkpt>
      <trkpt lat="47.27907" lon="4.99023">
        <ele>551.959</ele>
        <time>2012-02-10T11:10:28Z</time>
      </trkpt>
      <trkpt lat="47.27897" lon="4.98997">
        <ele>565.179</ele>
        <time>2012-02-10T11:10:39Z</time>
      </trkpt>
      <trkpt lat="47.27893" lon="4.98995">
        <ele>578.526</ele>
        <time>2012-02-10T11:10:50Z</time>
      </trkpt>
      <trkpt lat="47.27903" lon="4.9902">
        <ele>585.761</ele>
        <time>2012-02-10T11:11:01Z</time>
      </trkpt>
      <trkpt lat="47.27907" lon="4.99025">
        <ele>589.952</ele>
        <time>2012-02-10T11:11:12Z</time>
      </trkpt>
      <trkpt lat="47.27903" lon="4.99023">
        <ele>592.39</ele>
        <time>2012-02-10T11:11:23Z</time>
      </trkpt>
      <trkpt lat="47.27898" lon="4.98997">
        <ele>597.088</ele>
        <time>2012-02-10T11:11:34Z</time>
      </trkpt>
      <trkpt lat="47.27897" lon="4.9898">
        <ele>603.355</ele>
        <time>2012-02-10T11:11:45Z</time>
      </trkpt>
      <trkpt lat="47.27898" lon="4.98978">
        <ele>611.082</ele>
        <time>2012-02-10T11:11:56Z</time>
      </trkpt>
      <trkpt lat="47.27903" lon="4.98993">
        <ele>621.312</ele>
        <time>2012-02-10T11:12:07Z</time>
      </trkpt>
      <trkpt lat="47.279" lon="4.98997">
        <ele>632.276</ele>
        <time>2012-02-10T11:12:18Z</time>
      </trkpt>
      <trkpt lat="47.27912" lon="4.98992">
        <ele>633.906</ele>
        <time>2012-02-10T11:12:29Z</time>
      </trkpt>
      <trkpt lat="47.2793" lon="4.98988">
        <ele>634.37</ele>
        <time>2012-02-10T11:12:40Z</time>
      </trkpt>
      <trkpt lat="47.27945" lon="4.98992">
        <ele>633.237</ele>
        <time>2012-02-10T11:12:51Z</time>
      </trkpt>
      <trkpt lat="47.27958" lon="4.99007">
        <ele>639.59</ele>
        <time>2012-02-10T11:13:02Z</time>
      </trkpt>
      <trkpt lat="47.27973" lon="4.99015">
        <ele>646.019</ele>
        <time>2012-02-10T11:13:13Z</time>
      </trkpt>
      <trkpt lat="47.27985" lon="4.99032">
        <ele>659.733</ele>
        <time>2012-02-10T11:13:24Z</time>
      </trkpt>
      <trkpt lat="47.28" lon="4.99047">
        <ele>671.585</ele>
        <time>2012-02-10T11:13:35Z</time>
      </trkpt>
      <trkpt lat="47.28005" lon="4.9906">
        <ele>689.063</ele>
        <time>2012-02-10T11:13:46Z</time>
      </trkpt>
      <trkpt lat="47.28018" lon="4.99068">
        <ele>700.079</ele>
        <time>2012-02-10T11:13:57Z</time>
      </trkpt>
      <trkpt lat="47.28027" lon="4.99067">
        <ele>708.677</ele>
        <time>2012-02-10T11:14:08Z</time>
      </trkpt>
      <trkpt lat="47.28033" lon="4.99068">
        <ele>707.11</ele>
        <time>2012-02-10T11:14:19Z</time>
      </trkpt>
      <trkpt lat="47.28048" lon="4.99085">
        <ele>723.245</ele>
        <time>2012-02-10T11:14:30Z</time>
      </trkpt>
      <trkpt lat="47.28058" lon="4.99115">
        <ele>736.384</ele>
        <time>2012-02-10T11:14:41Z</time>
      </trkpt>
      <trkpt lat="47.2806" lon="4.99115">
        <ele>738.177</ele>
        <time>2012-02-10T11:14:52Z</time>
      </trkpt>
      <trkpt lat="47.28065" lon="4.99123">
        <ele>744.359</ele>
        <time>2012-02-10T11:15:03Z</time>
      </trkpt>
      <trkpt lat="47.2807" lon="4.9912">
        <ele>746.986</ele>
        <time>2012-02-10T11:15:14Z</time>
      </trkpt>
      <trkpt lat="47.28065" lon="4.99088">
        <ele>747.526</ele>
        <time>2012-02-10T11:15:25Z</time>
      </trkpt>
      <trkpt lat="47.28072" lon="4.99065">
        <ele>757.934</ele>
        <time>2012-02-10T11:15:36Z</time>
      </trkpt>
      <trkpt lat="47.2808" lon="4.99067">
        <ele>762.028</ele>
        <time>2012-02-10T11:15:47Z</time>
      </trkpt>
      <trkpt lat="47.28088" lon="4.99072">
        <ele>768.23</ele>
        <time>2012-02-10T11:15:58Z</time>
      </trkpt>
      <trkpt lat="47.28103" lon="4.99068">
        <ele>773.606</ele>
        <time>2012-02-10T11:16:09Z</time>
      </trkpt>
      <trkpt lat="47.28125" lon="4.99073">
        <ele>765.117</ele>
        <time>2012-02-10T11:16:20Z</time>
      </trkpt>
      <trkpt lat="47.28145" lon="4.99075">
        <ele>762.939</ele>
        <time>2012-02-10T11:16:31Z</time>
      </trkpt>
      <trkpt lat="47.2816" lon="4.99087">
        <ele>763.89</ele>
        <time>2012-02-10T11:16:42Z</time>
      </trkpt>
      <trkpt lat="47.28177" lon="4.99117">
        <ele>759.995</ele>
        <time>2012-02-10T11:16:53Z</time>
      </trkpt>
      <trkpt lat="47.282" lon="4.99113">
        <ele>751.463</ele>
        <time>2012-02-10T11:17:04Z</time>
      </trkpt>
      <trkpt lat="47.28208" lon="4.99062">
        <ele>742.423</ele>
        <time>2012-02-10T11:17:15Z</time>
      </trkpt>
      <trkpt lat="47.28212" lon="4.9903">
        <ele>742.275</ele>
        <time>2012-02-10T11:17:26Z</time>
      </trkpt>
      <trkpt lat="47.28225" lon="4.99035">
        <ele>744.931</ele>
        <time>2012-02-10T11:17:37Z</time>
      </trkpt>
      <trkpt lat="47.28223" lon="4.98998">
        <ele>742.345</ele>
        <time>2012-02-10T11:17:48Z</time>
      </trkpt>
      <trkpt lat="47.28235" lon="4.98997">
        <ele>733.73</ele>
        <time>2012-02-10T11:17:59Z</time>
      </trkpt>
      <trkpt lat="47.28213" lon="4.98995">
        <ele>779.755</ele>
        <time>2012-02-10T11:18:10Z</time>
      </trkpt>
      <trkpt lat="47.28198" lon="4.98972">
        <ele>813.318</ele>
        <time>2012-02-10T11:18:21Z</time>
      </trkpt>
      <trkpt lat="47.28212" lon="4.98943">
        <ele>826.813</ele>
        <time>2012-02-10T11:18:32Z</time>
      </trkpt>
      <trkpt lat="47.28218" lon="4.98948">
        <ele>842.357</ele>
        <time>2012-02-10T11:18:43Z</time>
      </trkpt>
      <trkpt lat="47.2822" lon="4.98947">
        <ele>852.363</ele>
        <time>2012-02-10T11:18:54Z</time>
      </trkpt>
      <trkpt lat="47.28225" lon="4.98928">
        <ele>849.926</ele>
        <time>2012-02-10T11:19:05Z</time>
      </trkpt>
      <trkpt lat="47.28252" lon="4.9898">
        <ele>842.488</ele>
        <time>2012-02-10T11:19:16Z</time>
      </trkpt>
      <trkpt lat="47.28248" lon="4.98918">
        <ele>834.177</ele>
        <time>2012-02-10T11:19:27Z</time>
      </trkpt>
      <trkpt lat="47.28233" lon="4.98832">
        <ele>829.481</ele>
        <time>2012-02-10T11:19:38Z</time>
      </trkpt>
      <trkpt lat="47.28238" lon="4.98757">
        <ele>817.819</ele>
        <time>2012-02-10T11:19:49Z</time>
      </trkpt>
      <trkpt lat="47.2822" lon="4.98663">
        <ele>820.285</ele>
        <time>2012-02-10T11:20:00Z</time>
      </trkpt>
      <trkpt lat="47.2822" lon="4.98665">
        <ele>820.428</ele>
        <time>2012-02-10T11:20:11Z</time>
      </trkpt>
      <trkpt lat="47.28217" lon="4.98667">
        <ele>821.234</ele>
        <time>2012-02-10T11:20:22Z</time>
      </trkpt>
      <trkpt lat="47.28213" lon="4.98672">
        <ele>829.359</ele>
        <time>2012-02-10T11:20:33Z</time>
      </trkpt>
      <trkpt lat="47.28175" lon="4.98622">
        <ele>880.324</ele>
        <time>2012-02-10T11:20:44Z</time>
      </trkpt>
      <trkpt lat="47.2813" lon="4.9858">
        <ele>943.78</ele>
        <time>2012-02-10T11:20:55Z</time>
      </trkpt>
      <trkpt lat="47.28142" lon="4.9859">
        <ele>948.596</ele>
        <time>2012-02-10T11:21:06Z</time>
      </trkpt>
      <trkpt lat="47.28138" lon="4.98577">
        <ele>963.825</ele>
        <time>2012-02-10T11:21:17Z</time>
      </trkpt>
      <trkpt lat="47.28135" lon="4.98563">
        <ele>979.945</ele>
        <time>2012-02-10T11:21:28Z</time>
      </trkpt>
      <trkpt lat="47.28127" lon="4.98565">
        <ele>998.609</ele>
        <time>2012-02-10T11:21:39Z</time>
      </trkpt>
      <trkpt lat="47.28075" lon="4.98495">
        <ele>1077.927</ele>
        <time>2012-02-10T11:21:50Z</time>
      </trkpt>
      <trkpt lat="47.28012" lon="4.984">
        <ele>1168.411</ele>
        <time>2012-02-10T11:22:01Z</time>
      </trkpt>
      <trkpt lat="47.27967" lon="4.98325">
        <ele>1233.415</ele>
        <time>2012-02-10T11:22:12Z</time>
      </trkpt>
      <trkpt lat="47.27953" lon="4.98287">
        <ele>1255.723</ele>
        <time>2012-02-10T11:22:23Z</time>
      </trkpt>
      <trkpt lat="47.27948" lon="4.9826">
        <ele>1272.768</ele>
        <time>2012-02-10T11:22:34Z</time>
      </trkpt>
      <trkpt lat="47.27962" lon="4.98258">
        <ele>1284.218</ele>
        <time>2012-02-10T11:22:45Z</time>
      </trkpt>
      <trkpt lat="47.27948" lon="4.98188">
        <ele>1312.813</ele>
        <time>2012-02-10T11:22:56Z</time>
      </trkpt>
      <trkpt lat="47.27935" lon="4.98145">
        <ele>1334.005</ele>
        <time>2012-02-10T11:23:07Z</time>
      </trkpt>
      <trkpt lat="47.27915" lon="4.98073">
        <ele>1353.95</ele>
        <time>2012-02-10T11:23:18Z</time>
      </trkpt>
      <trkpt lat="47.27915" lon="4.9805">
        <ele>1353.759</ele>
        <time>2012-02-10T11:23:29Z</time>
      </trkpt>
      <trkpt lat="47.27912" lon="4.98027">
        <ele>1367.304</ele>
        <time>2012-02-10T11:23:40Z</time>
      </trkpt>
      <trkpt lat="47.27877" lon="4.97922">
        <ele>1401.544</ele>
        <time>2012-02-10T11:23:51Z</time>
      </trkpt>
      <trkpt lat="47.27837" lon="4.97847">
        <ele>1450.285</ele>
        <time>2012-02-10T11:24:02Z</time>
      </trkpt>
      <trkpt lat="47.27822" lon="4.97697">
        <ele>1456.736</ele>
        <time>2012-02-10T11:24:13Z</time>
      </trkpt>
      <trkpt lat="47.27803" lon="4.97658">
        <ele>1483.258</ele>
        <time>2012-02-10T11:24:24Z</time>
      </trkpt>
      <trkpt lat="47.27803" lon="4.97655">
        <ele>1492.759</ele>
        <time>2012-02-10T11:24:35Z</time>
      </trkpt>
      <trkpt lat="47.27778" lon="4.97643">
        <ele>1530.46</ele>
        <time>2012-02-10T11:24:46Z</time>
      </trkpt>
      <trkpt lat="47.28205" lon="4.9854">
        <ele>1539.618</ele>
        <time>2012-02-10T11:26:24Z</time>
      </trkpt>
      <trkpt lat="47.28193" lon="4.98543">
        <ele>1539.533</ele>
        <time>2012-02-10T11:26:35Z</time>
      </trkpt>
      <trkpt lat="47.28212" lon="4.98555">
        <ele>1539.615</ele>
        <time>2012-02-10T11:26:47Z</time>
      </trkpt>
      <trkpt lat="47.28207" lon="4.98558">
        <ele>1539.603</ele>
        <time>2012-02-10T11:27:00Z</time>
      </trkpt>
      <trkpt lat="47.28198" lon="4.98565">
        <ele>1539.581</ele>
        <time>2012-02-10T11:27:11Z</time>
      </trkpt>
    </trkseg>
  </trk>
</gpx>